<?xml version="1.0" encoding="UTF-8" standalone="no" ?>
<gpx xmlns="http://www.topografix.com/GPX/1/1" xmlns:xsi="http://www.w3.org/2001/XMLSchema-instance" xsi:schemaLocation="http://www.topografix.com/GPX/1/1 http://www.topografix.com/GPX/1/1/gpx.xsd" version="1.1" creator="VisuGPX - https://www.visugpx.com">
  <metadata>
    <name>9385005-Plestin dimanche 1</name>
  </metadata>
  <trk>
    <name><![CDATA[9385005-Plestin dimanche 1]]></name>
    <trkseg>
      <trkpt lat="48.67883" lon="-3.62598">
        <ele>54</ele>
        <time>2022-04-24T20:25:11Z</time>
      </trkpt>
      <trkpt lat="48.67886" lon="-3.62572">
        <ele>54</ele>
        <time>2022-04-24T20:25:14Z</time>
      </trkpt>
      <trkpt lat="48.67881" lon="-3.62537">
        <ele>56</ele>
        <time>2022-04-24T20:25:18Z</time>
      </trkpt>
      <trkpt lat="48.67869" lon="-3.62496">
        <ele>57</ele>
        <time>2022-04-24T20:25:24Z</time>
      </trkpt>
      <trkpt lat="48.67852" lon="-3.62424">
        <ele>58</ele>
        <time>2022-04-24T20:25:33Z</time>
      </trkpt>
      <trkpt lat="48.67873" lon="-3.62405">
        <ele>59</ele>
        <time>2022-04-24T20:25:37Z</time>
      </trkpt>
      <trkpt lat="48.67927" lon="-3.62348">
        <ele>63</ele>
        <time>2022-04-24T20:25:49Z</time>
      </trkpt>
      <trkpt lat="48.67948" lon="-3.62319">
        <ele>63</ele>
        <time>2022-04-24T20:25:54Z</time>
      </trkpt>
      <trkpt lat="48.67955" lon="-3.62306">
        <ele>63</ele>
        <time>2022-04-24T20:25:56Z</time>
      </trkpt>
      <trkpt lat="48.67977" lon="-3.62273">
        <ele>64</ele>
        <time>2022-04-24T20:26:01Z</time>
      </trkpt>
      <trkpt lat="48.68009" lon="-3.62236">
        <ele>63</ele>
        <time>2022-04-24T20:26:08Z</time>
      </trkpt>
      <trkpt lat="48.6809" lon="-3.62152">
        <ele>58</ele>
        <time>2022-04-24T20:26:26Z</time>
      </trkpt>
      <trkpt lat="48.68101" lon="-3.62138">
        <ele>57</ele>
        <time>2022-04-24T20:26:28Z</time>
      </trkpt>
      <trkpt lat="48.68101" lon="-3.62165">
        <ele>57</ele>
        <time>2022-04-24T20:26:32Z</time>
      </trkpt>
      <trkpt lat="48.68124" lon="-3.62287">
        <ele>56</ele>
        <time>2022-04-24T20:26:46Z</time>
      </trkpt>
      <trkpt lat="48.68131" lon="-3.62334">
        <ele>55</ele>
        <time>2022-04-24T20:26:52Z</time>
      </trkpt>
      <trkpt lat="48.68133" lon="-3.62355">
        <ele>55</ele>
        <time>2022-04-24T20:26:55Z</time>
      </trkpt>
      <trkpt lat="48.68132" lon="-3.62389">
        <ele>55</ele>
        <time>2022-04-24T20:26:59Z</time>
      </trkpt>
      <trkpt lat="48.68116" lon="-3.62537">
        <ele>49</ele>
        <time>2022-04-24T20:27:16Z</time>
      </trkpt>
      <trkpt lat="48.6808" lon="-3.62846">
        <ele>42</ele>
        <time>2022-04-24T20:27:53Z</time>
      </trkpt>
      <trkpt lat="48.68076" lon="-3.62866">
        <ele>42</ele>
        <time>2022-04-24T20:27:56Z</time>
      </trkpt>
      <trkpt lat="48.68059" lon="-3.6292">
        <ele>43</ele>
        <time>2022-04-24T20:28:03Z</time>
      </trkpt>
      <trkpt lat="48.68056" lon="-3.6295">
        <ele>43</ele>
        <time>2022-04-24T20:28:06Z</time>
      </trkpt>
      <trkpt lat="48.68047" lon="-3.63245">
        <ele>37</ele>
        <time>2022-04-24T20:28:41Z</time>
      </trkpt>
      <trkpt lat="48.6805" lon="-3.6328">
        <ele>36</ele>
        <time>2022-04-24T20:28:45Z</time>
      </trkpt>
      <trkpt lat="48.68072" lon="-3.6347">
        <ele>30</ele>
        <time>2022-04-24T20:29:08Z</time>
      </trkpt>
      <trkpt lat="48.68074" lon="-3.63496">
        <ele>29</ele>
        <time>2022-04-24T20:29:11Z</time>
      </trkpt>
      <trkpt lat="48.68073" lon="-3.63508">
        <ele>29</ele>
        <time>2022-04-24T20:29:12Z</time>
      </trkpt>
      <trkpt lat="48.68067" lon="-3.63536">
        <ele>28</ele>
        <time>2022-04-24T20:29:16Z</time>
      </trkpt>
      <trkpt lat="48.68052" lon="-3.63573">
        <ele>27</ele>
        <time>2022-04-24T20:29:21Z</time>
      </trkpt>
      <trkpt lat="48.68036" lon="-3.63596">
        <ele>26</ele>
        <time>2022-04-24T20:29:25Z</time>
      </trkpt>
      <trkpt lat="48.68025" lon="-3.63607">
        <ele>26</ele>
        <time>2022-04-24T20:29:27Z</time>
      </trkpt>
      <trkpt lat="48.68005" lon="-3.63618">
        <ele>26</ele>
        <time>2022-04-24T20:29:31Z</time>
      </trkpt>
      <trkpt lat="48.67928" lon="-3.63642">
        <ele>24</ele>
        <time>2022-04-24T20:29:45Z</time>
      </trkpt>
      <trkpt lat="48.67731" lon="-3.63698">
        <ele>21</ele>
        <time>2022-04-24T20:30:20Z</time>
      </trkpt>
      <trkpt lat="48.67697" lon="-3.63699">
        <ele>18</ele>
        <time>2022-04-24T20:30:26Z</time>
      </trkpt>
      <trkpt lat="48.67643" lon="-3.63684">
        <ele>16</ele>
        <time>2022-04-24T20:30:36Z</time>
      </trkpt>
      <trkpt lat="48.67572" lon="-3.63656">
        <ele>15</ele>
        <time>2022-04-24T20:30:49Z</time>
      </trkpt>
      <trkpt lat="48.67531" lon="-3.63623">
        <ele>17</ele>
        <time>2022-04-24T20:30:58Z</time>
      </trkpt>
      <trkpt lat="48.67374" lon="-3.6349">
        <ele>20</ele>
        <time>2022-04-24T20:31:30Z</time>
      </trkpt>
      <trkpt lat="48.67244" lon="-3.63452">
        <ele>16</ele>
        <time>2022-04-24T20:31:53Z</time>
      </trkpt>
      <trkpt lat="48.67232" lon="-3.6345">
        <ele>15</ele>
        <time>2022-04-24T20:31:55Z</time>
      </trkpt>
      <trkpt lat="48.67213" lon="-3.63449">
        <ele>13</ele>
        <time>2022-04-24T20:31:59Z</time>
      </trkpt>
      <trkpt lat="48.67125" lon="-3.63462">
        <ele>10</ele>
        <time>2022-04-24T20:32:14Z</time>
      </trkpt>
      <trkpt lat="48.67106" lon="-3.63474">
        <ele>10</ele>
        <time>2022-04-24T20:32:18Z</time>
      </trkpt>
      <trkpt lat="48.67093" lon="-3.63492">
        <ele>10</ele>
        <time>2022-04-24T20:32:21Z</time>
      </trkpt>
      <trkpt lat="48.67085" lon="-3.63528">
        <ele>9</ele>
        <time>2022-04-24T20:32:26Z</time>
      </trkpt>
      <trkpt lat="48.67067" lon="-3.63647">
        <ele>9</ele>
        <time>2022-04-24T20:32:40Z</time>
      </trkpt>
      <trkpt lat="48.67014" lon="-3.63837">
        <ele>6</ele>
        <time>2022-04-24T20:33:04Z</time>
      </trkpt>
      <trkpt lat="48.66987" lon="-3.63967">
        <ele>3</ele>
        <time>2022-04-24T20:33:20Z</time>
      </trkpt>
      <trkpt lat="48.66976" lon="-3.64032">
        <ele>3</ele>
        <time>2022-04-24T20:33:28Z</time>
      </trkpt>
      <trkpt lat="48.66964" lon="-3.64152">
        <ele>6</ele>
        <time>2022-04-24T20:33:42Z</time>
      </trkpt>
      <trkpt lat="48.66962" lon="-3.64203">
        <ele>6</ele>
        <time>2022-04-24T20:33:48Z</time>
      </trkpt>
      <trkpt lat="48.66962" lon="-3.64243">
        <ele>5</ele>
        <time>2022-04-24T20:33:53Z</time>
      </trkpt>
      <trkpt lat="48.66965" lon="-3.6427">
        <ele>5</ele>
        <time>2022-04-24T20:33:56Z</time>
      </trkpt>
      <trkpt lat="48.66974" lon="-3.64302">
        <ele>4</ele>
        <time>2022-04-24T20:34:00Z</time>
      </trkpt>
      <trkpt lat="48.66992" lon="-3.64342">
        <ele>3</ele>
        <time>2022-04-24T20:34:06Z</time>
      </trkpt>
      <trkpt lat="48.67011" lon="-3.64366">
        <ele>2</ele>
        <time>2022-04-24T20:34:10Z</time>
      </trkpt>
      <trkpt lat="48.67097" lon="-3.64431">
        <ele>1</ele>
        <time>2022-04-24T20:34:28Z</time>
      </trkpt>
      <trkpt lat="48.67152" lon="-3.64477">
        <ele>7</ele>
        <time>2022-04-24T20:34:39Z</time>
      </trkpt>
      <trkpt lat="48.6718" lon="-3.64495">
        <ele>10</ele>
        <time>2022-04-24T20:34:44Z</time>
      </trkpt>
      <trkpt lat="48.67191" lon="-3.64499">
        <ele>12</ele>
        <time>2022-04-24T20:34:46Z</time>
      </trkpt>
      <trkpt lat="48.67218" lon="-3.64502">
        <ele>16</ele>
        <time>2022-04-24T20:34:51Z</time>
      </trkpt>
      <trkpt lat="48.67243" lon="-3.64498">
        <ele>19</ele>
        <time>2022-04-24T20:34:55Z</time>
      </trkpt>
      <trkpt lat="48.67321" lon="-3.64479">
        <ele>26</ele>
        <time>2022-04-24T20:35:09Z</time>
      </trkpt>
      <trkpt lat="48.67372" lon="-3.64478">
        <ele>27</ele>
        <time>2022-04-24T20:35:19Z</time>
      </trkpt>
      <trkpt lat="48.67391" lon="-3.6448">
        <ele>27</ele>
        <time>2022-04-24T20:35:22Z</time>
      </trkpt>
      <trkpt lat="48.67426" lon="-3.64492">
        <ele>27</ele>
        <time>2022-04-24T20:35:28Z</time>
      </trkpt>
      <trkpt lat="48.67449" lon="-3.64504">
        <ele>26</ele>
        <time>2022-04-24T20:35:33Z</time>
      </trkpt>
      <trkpt lat="48.67487" lon="-3.64532">
        <ele>24</ele>
        <time>2022-04-24T20:35:40Z</time>
      </trkpt>
      <trkpt lat="48.6751" lon="-3.64555">
        <ele>23</ele>
        <time>2022-04-24T20:35:45Z</time>
      </trkpt>
      <trkpt lat="48.67528" lon="-3.64576">
        <ele>23</ele>
        <time>2022-04-24T20:35:49Z</time>
      </trkpt>
      <trkpt lat="48.67564" lon="-3.64633">
        <ele>20</ele>
        <time>2022-04-24T20:35:58Z</time>
      </trkpt>
      <trkpt lat="48.68034" lon="-3.65459">
        <ele>16</ele>
        <time>2022-04-24T20:38:06Z</time>
      </trkpt>
      <trkpt lat="48.68086" lon="-3.65547">
        <ele>14</ele>
        <time>2022-04-24T20:38:20Z</time>
      </trkpt>
      <trkpt lat="48.68098" lon="-3.65562">
        <ele>16</ele>
        <time>2022-04-24T20:38:23Z</time>
      </trkpt>
      <trkpt lat="48.68128" lon="-3.65589">
        <ele>19</ele>
        <time>2022-04-24T20:38:29Z</time>
      </trkpt>
      <trkpt lat="48.68149" lon="-3.65596">
        <ele>21</ele>
        <time>2022-04-24T20:38:33Z</time>
      </trkpt>
      <trkpt lat="48.68164" lon="-3.65597">
        <ele>21</ele>
        <time>2022-04-24T20:38:36Z</time>
      </trkpt>
      <trkpt lat="48.68189" lon="-3.65592">
        <ele>24</ele>
        <time>2022-04-24T20:38:40Z</time>
      </trkpt>
      <trkpt lat="48.68212" lon="-3.65583">
        <ele>25</ele>
        <time>2022-04-24T20:38:45Z</time>
      </trkpt>
      <trkpt lat="48.68234" lon="-3.6557">
        <ele>26</ele>
        <time>2022-04-24T20:38:49Z</time>
      </trkpt>
      <trkpt lat="48.68295" lon="-3.65521">
        <ele>25</ele>
        <time>2022-04-24T20:39:01Z</time>
      </trkpt>
      <trkpt lat="48.68331" lon="-3.65502">
        <ele>27</ele>
        <time>2022-04-24T20:39:08Z</time>
      </trkpt>
      <trkpt lat="48.68353" lon="-3.65493">
        <ele>26</ele>
        <time>2022-04-24T20:39:12Z</time>
      </trkpt>
      <trkpt lat="48.68365" lon="-3.65489">
        <ele>26</ele>
        <time>2022-04-24T20:39:14Z</time>
      </trkpt>
      <trkpt lat="48.68455" lon="-3.65472">
        <ele>27</ele>
        <time>2022-04-24T20:39:30Z</time>
      </trkpt>
      <trkpt lat="48.68485" lon="-3.65462">
        <ele>27</ele>
        <time>2022-04-24T20:39:36Z</time>
      </trkpt>
      <trkpt lat="48.68573" lon="-3.65401">
        <ele>25</ele>
        <time>2022-04-24T20:39:53Z</time>
      </trkpt>
      <trkpt lat="48.68599" lon="-3.65385">
        <ele>25</ele>
        <time>2022-04-24T20:39:58Z</time>
      </trkpt>
      <trkpt lat="48.68637" lon="-3.65367">
        <ele>24</ele>
        <time>2022-04-24T20:40:05Z</time>
      </trkpt>
      <trkpt lat="48.68715" lon="-3.65357">
        <ele>23</ele>
        <time>2022-04-24T20:40:19Z</time>
      </trkpt>
      <trkpt lat="48.68728" lon="-3.65352">
        <ele>23</ele>
        <time>2022-04-24T20:40:21Z</time>
      </trkpt>
      <trkpt lat="48.68753" lon="-3.65334">
        <ele>21</ele>
        <time>2022-04-24T20:40:26Z</time>
      </trkpt>
      <trkpt lat="48.68763" lon="-3.65322">
        <ele>22</ele>
        <time>2022-04-24T20:40:28Z</time>
      </trkpt>
      <trkpt lat="48.68824" lon="-3.65209">
        <ele>19</ele>
        <time>2022-04-24T20:40:46Z</time>
      </trkpt>
      <trkpt lat="48.68841" lon="-3.65182">
        <ele>19</ele>
        <time>2022-04-24T20:40:50Z</time>
      </trkpt>
      <trkpt lat="48.68872" lon="-3.65137">
        <ele>20</ele>
        <time>2022-04-24T20:40:58Z</time>
      </trkpt>
      <trkpt lat="48.69054" lon="-3.64895">
        <ele>16</ele>
        <time>2022-04-24T20:41:41Z</time>
      </trkpt>
      <trkpt lat="48.69125" lon="-3.64819">
        <ele>13</ele>
        <time>2022-04-24T20:41:56Z</time>
      </trkpt>
      <trkpt lat="48.69225" lon="-3.64788">
        <ele>13</ele>
        <time>2022-04-24T20:42:14Z</time>
      </trkpt>
      <trkpt lat="48.69242" lon="-3.64785">
        <ele>13</ele>
        <time>2022-04-24T20:42:17Z</time>
      </trkpt>
      <trkpt lat="48.69261" lon="-3.64788">
        <ele>12</ele>
        <time>2022-04-24T20:42:21Z</time>
      </trkpt>
      <trkpt lat="48.69287" lon="-3.6481">
        <ele>12</ele>
        <time>2022-04-24T20:42:26Z</time>
      </trkpt>
      <trkpt lat="48.69308" lon="-3.64845">
        <ele>11</ele>
        <time>2022-04-24T20:42:32Z</time>
      </trkpt>
      <trkpt lat="48.6932" lon="-3.64874">
        <ele>10</ele>
        <time>2022-04-24T20:42:36Z</time>
      </trkpt>
      <trkpt lat="48.69323" lon="-3.64914">
        <ele>10</ele>
        <time>2022-04-24T20:42:40Z</time>
      </trkpt>
      <trkpt lat="48.69323" lon="-3.64928">
        <ele>10</ele>
        <time>2022-04-24T20:42:42Z</time>
      </trkpt>
      <trkpt lat="48.6931" lon="-3.65017">
        <ele>14</ele>
        <time>2022-04-24T20:42:53Z</time>
      </trkpt>
      <trkpt lat="48.69307" lon="-3.65058">
        <ele>16</ele>
        <time>2022-04-24T20:42:58Z</time>
      </trkpt>
      <trkpt lat="48.69309" lon="-3.65094">
        <ele>18</ele>
        <time>2022-04-24T20:43:02Z</time>
      </trkpt>
      <trkpt lat="48.69321" lon="-3.65179">
        <ele>19</ele>
        <time>2022-04-24T20:43:12Z</time>
      </trkpt>
      <trkpt lat="48.69321" lon="-3.65206">
        <ele>21</ele>
        <time>2022-04-24T20:43:15Z</time>
      </trkpt>
      <trkpt lat="48.69318" lon="-3.65243">
        <ele>23</ele>
        <time>2022-04-24T20:43:20Z</time>
      </trkpt>
      <trkpt lat="48.69306" lon="-3.65289">
        <ele>26</ele>
        <time>2022-04-24T20:43:25Z</time>
      </trkpt>
      <trkpt lat="48.69287" lon="-3.65333">
        <ele>30</ele>
        <time>2022-04-24T20:43:32Z</time>
      </trkpt>
      <trkpt lat="48.6923" lon="-3.65425">
        <ele>37</ele>
        <time>2022-04-24T20:43:46Z</time>
      </trkpt>
      <trkpt lat="48.69168" lon="-3.65531">
        <ele>41</ele>
        <time>2022-04-24T20:44:03Z</time>
      </trkpt>
      <trkpt lat="48.69142" lon="-3.65574">
        <ele>42</ele>
        <time>2022-04-24T20:44:10Z</time>
      </trkpt>
      <trkpt lat="48.69127" lon="-3.65593">
        <ele>43</ele>
        <time>2022-04-24T20:44:13Z</time>
      </trkpt>
      <trkpt lat="48.69111" lon="-3.65606">
        <ele>44</ele>
        <time>2022-04-24T20:44:17Z</time>
      </trkpt>
      <trkpt lat="48.69093" lon="-3.65616">
        <ele>45</ele>
        <time>2022-04-24T20:44:20Z</time>
      </trkpt>
      <trkpt lat="48.68955" lon="-3.65663">
        <ele>47</ele>
        <time>2022-04-24T20:44:45Z</time>
      </trkpt>
      <trkpt lat="48.68938" lon="-3.65679">
        <ele>47</ele>
        <time>2022-04-24T20:44:49Z</time>
      </trkpt>
      <trkpt lat="48.68909" lon="-3.6573">
        <ele>47</ele>
        <time>2022-04-24T20:44:57Z</time>
      </trkpt>
      <trkpt lat="48.68894" lon="-3.65768">
        <ele>47</ele>
        <time>2022-04-24T20:45:02Z</time>
      </trkpt>
      <trkpt lat="48.68866" lon="-3.65858">
        <ele>47</ele>
        <time>2022-04-24T20:45:14Z</time>
      </trkpt>
      <trkpt lat="48.68838" lon="-3.65923">
        <ele>46</ele>
        <time>2022-04-24T20:45:23Z</time>
      </trkpt>
      <trkpt lat="48.68829" lon="-3.65947">
        <ele>46</ele>
        <time>2022-04-24T20:45:26Z</time>
      </trkpt>
      <trkpt lat="48.68821" lon="-3.6597">
        <ele>46</ele>
        <time>2022-04-24T20:45:29Z</time>
      </trkpt>
      <trkpt lat="48.68797" lon="-3.66065">
        <ele>47</ele>
        <time>2022-04-24T20:45:41Z</time>
      </trkpt>
      <trkpt lat="48.68783" lon="-3.6611">
        <ele>47</ele>
        <time>2022-04-24T20:45:47Z</time>
      </trkpt>
      <trkpt lat="48.68779" lon="-3.66131">
        <ele>47</ele>
        <time>2022-04-24T20:45:49Z</time>
      </trkpt>
      <trkpt lat="48.68763" lon="-3.66227">
        <ele>46</ele>
        <time>2022-04-24T20:46:01Z</time>
      </trkpt>
      <trkpt lat="48.68743" lon="-3.66303">
        <ele>45</ele>
        <time>2022-04-24T20:46:11Z</time>
      </trkpt>
      <trkpt lat="48.6874" lon="-3.66324">
        <ele>45</ele>
        <time>2022-04-24T20:46:13Z</time>
      </trkpt>
      <trkpt lat="48.68736" lon="-3.66385">
        <ele>44</ele>
        <time>2022-04-24T20:46:20Z</time>
      </trkpt>
      <trkpt lat="48.68738" lon="-3.66616">
        <ele>44</ele>
        <time>2022-04-24T20:46:47Z</time>
      </trkpt>
      <trkpt lat="48.68733" lon="-3.66651">
        <ele>45</ele>
        <time>2022-04-24T20:46:52Z</time>
      </trkpt>
      <trkpt lat="48.68728" lon="-3.66669">
        <ele>45</ele>
        <time>2022-04-24T20:46:54Z</time>
      </trkpt>
      <trkpt lat="48.68717" lon="-3.66693">
        <ele>45</ele>
        <time>2022-04-24T20:46:57Z</time>
      </trkpt>
      <trkpt lat="48.68693" lon="-3.66733">
        <ele>43</ele>
        <time>2022-04-24T20:47:04Z</time>
      </trkpt>
      <trkpt lat="48.68654" lon="-3.66781">
        <ele>39</ele>
        <time>2022-04-24T20:47:13Z</time>
      </trkpt>
      <trkpt lat="48.68646" lon="-3.66796">
        <ele>39</ele>
        <time>2022-04-24T20:47:15Z</time>
      </trkpt>
      <trkpt lat="48.68636" lon="-3.66823">
        <ele>38</ele>
        <time>2022-04-24T20:47:19Z</time>
      </trkpt>
      <trkpt lat="48.68628" lon="-3.66856">
        <ele>36</ele>
        <time>2022-04-24T20:47:23Z</time>
      </trkpt>
      <trkpt lat="48.686" lon="-3.67124">
        <ele>22</ele>
        <time>2022-04-24T20:47:55Z</time>
      </trkpt>
      <trkpt lat="48.68602" lon="-3.67164">
        <ele>21</ele>
        <time>2022-04-24T20:47:59Z</time>
      </trkpt>
      <trkpt lat="48.68611" lon="-3.67206">
        <ele>20</ele>
        <time>2022-04-24T20:48:04Z</time>
      </trkpt>
      <trkpt lat="48.68618" lon="-3.67226">
        <ele>20</ele>
        <time>2022-04-24T20:48:07Z</time>
      </trkpt>
      <trkpt lat="48.68669" lon="-3.67339">
        <ele>16</ele>
        <time>2022-04-24T20:48:23Z</time>
      </trkpt>
      <trkpt lat="48.68675" lon="-3.67356">
        <ele>16</ele>
        <time>2022-04-24T20:48:25Z</time>
      </trkpt>
      <trkpt lat="48.68684" lon="-3.67399">
        <ele>15</ele>
        <time>2022-04-24T20:48:31Z</time>
      </trkpt>
      <trkpt lat="48.68686" lon="-3.67439">
        <ele>13</ele>
        <time>2022-04-24T20:48:35Z</time>
      </trkpt>
      <trkpt lat="48.68685" lon="-3.67465">
        <ele>12</ele>
        <time>2022-04-24T20:48:39Z</time>
      </trkpt>
      <trkpt lat="48.68681" lon="-3.67506">
        <ele>10</ele>
        <time>2022-04-24T20:48:43Z</time>
      </trkpt>
      <trkpt lat="48.68671" lon="-3.67555">
        <ele>9</ele>
        <time>2022-04-24T20:48:49Z</time>
      </trkpt>
      <trkpt lat="48.68661" lon="-3.67585">
        <ele>8</ele>
        <time>2022-04-24T20:48:53Z</time>
      </trkpt>
      <trkpt lat="48.68651" lon="-3.67609">
        <ele>7</ele>
        <time>2022-04-24T20:48:57Z</time>
      </trkpt>
      <trkpt lat="48.68637" lon="-3.67631">
        <ele>7</ele>
        <time>2022-04-24T20:49:00Z</time>
      </trkpt>
      <trkpt lat="48.68593" lon="-3.67675">
        <ele>8</ele>
        <time>2022-04-24T20:49:10Z</time>
      </trkpt>
      <trkpt lat="48.68618" lon="-3.67758">
        <ele>8</ele>
        <time>2022-04-24T20:49:20Z</time>
      </trkpt>
      <trkpt lat="48.68622" lon="-3.67786">
        <ele>8</ele>
        <time>2022-04-24T20:49:24Z</time>
      </trkpt>
      <trkpt lat="48.68627" lon="-3.67856">
        <ele>10</ele>
        <time>2022-04-24T20:49:32Z</time>
      </trkpt>
      <trkpt lat="48.68635" lon="-3.67947">
        <ele>13</ele>
        <time>2022-04-24T20:49:43Z</time>
      </trkpt>
      <trkpt lat="48.68633" lon="-3.68032">
        <ele>17</ele>
        <time>2022-04-24T20:49:53Z</time>
      </trkpt>
      <trkpt lat="48.68635" lon="-3.68071">
        <ele>19</ele>
        <time>2022-04-24T20:49:57Z</time>
      </trkpt>
      <trkpt lat="48.6865" lon="-3.68138">
        <ele>20</ele>
        <time>2022-04-24T20:50:06Z</time>
      </trkpt>
      <trkpt lat="48.68684" lon="-3.6824">
        <ele>24</ele>
        <time>2022-04-24T20:50:19Z</time>
      </trkpt>
      <trkpt lat="48.68695" lon="-3.6829">
        <ele>25</ele>
        <time>2022-04-24T20:50:25Z</time>
      </trkpt>
      <trkpt lat="48.68708" lon="-3.68364">
        <ele>26</ele>
        <time>2022-04-24T20:50:34Z</time>
      </trkpt>
      <trkpt lat="48.6873" lon="-3.68574">
        <ele>36</ele>
        <time>2022-04-24T20:50:59Z</time>
      </trkpt>
      <trkpt lat="48.68735" lon="-3.68605">
        <ele>39</ele>
        <time>2022-04-24T20:51:03Z</time>
      </trkpt>
      <trkpt lat="48.68743" lon="-3.68629">
        <ele>40</ele>
        <time>2022-04-24T20:51:06Z</time>
      </trkpt>
      <trkpt lat="48.68751" lon="-3.68646">
        <ele>41</ele>
        <time>2022-04-24T20:51:09Z</time>
      </trkpt>
      <trkpt lat="48.68761" lon="-3.68657">
        <ele>42</ele>
        <time>2022-04-24T20:51:11Z</time>
      </trkpt>
      <trkpt lat="48.68784" lon="-3.68667">
        <ele>44</ele>
        <time>2022-04-24T20:51:15Z</time>
      </trkpt>
      <trkpt lat="48.68892" lon="-3.68669">
        <ele>43</ele>
        <time>2022-04-24T20:51:34Z</time>
      </trkpt>
      <trkpt lat="48.68903" lon="-3.68671">
        <ele>43</ele>
        <time>2022-04-24T20:51:36Z</time>
      </trkpt>
      <trkpt lat="48.68915" lon="-3.68679">
        <ele>44</ele>
        <time>2022-04-24T20:51:39Z</time>
      </trkpt>
      <trkpt lat="48.68924" lon="-3.68699">
        <ele>45</ele>
        <time>2022-04-24T20:51:41Z</time>
      </trkpt>
      <trkpt lat="48.68955" lon="-3.68783">
        <ele>49</ele>
        <time>2022-04-24T20:51:53Z</time>
      </trkpt>
      <trkpt lat="48.68966" lon="-3.68805">
        <ele>49</ele>
        <time>2022-04-24T20:51:56Z</time>
      </trkpt>
      <trkpt lat="48.68979" lon="-3.68824">
        <ele>50</ele>
        <time>2022-04-24T20:51:59Z</time>
      </trkpt>
      <trkpt lat="48.69002" lon="-3.68835">
        <ele>47</ele>
        <time>2022-04-24T20:52:03Z</time>
      </trkpt>
      <trkpt lat="48.69012" lon="-3.68837">
        <ele>45</ele>
        <time>2022-04-24T20:52:05Z</time>
      </trkpt>
      <trkpt lat="48.69045" lon="-3.68836">
        <ele>39</ele>
        <time>2022-04-24T20:52:11Z</time>
      </trkpt>
      <trkpt lat="48.69065" lon="-3.68843">
        <ele>36</ele>
        <time>2022-04-24T20:52:15Z</time>
      </trkpt>
      <trkpt lat="48.69076" lon="-3.68857">
        <ele>36</ele>
        <time>2022-04-24T20:52:17Z</time>
      </trkpt>
      <trkpt lat="48.69089" lon="-3.68886">
        <ele>36</ele>
        <time>2022-04-24T20:52:21Z</time>
      </trkpt>
      <trkpt lat="48.69096" lon="-3.68911">
        <ele>37</ele>
        <time>2022-04-24T20:52:25Z</time>
      </trkpt>
      <trkpt lat="48.69099" lon="-3.68937">
        <ele>35</ele>
        <time>2022-04-24T20:52:28Z</time>
      </trkpt>
      <trkpt lat="48.69095" lon="-3.6896">
        <ele>36</ele>
        <time>2022-04-24T20:52:31Z</time>
      </trkpt>
      <trkpt lat="48.69015" lon="-3.69226">
        <ele>38</ele>
        <time>2022-04-24T20:53:05Z</time>
      </trkpt>
      <trkpt lat="48.69002" lon="-3.69274">
        <ele>39</ele>
        <time>2022-04-24T20:53:11Z</time>
      </trkpt>
      <trkpt lat="48.68995" lon="-3.69321">
        <ele>38</ele>
        <time>2022-04-24T20:53:17Z</time>
      </trkpt>
      <trkpt lat="48.68999" lon="-3.69365">
        <ele>37</ele>
        <time>2022-04-24T20:53:22Z</time>
      </trkpt>
      <trkpt lat="48.69018" lon="-3.69419">
        <ele>30</ele>
        <time>2022-04-24T20:53:29Z</time>
      </trkpt>
      <trkpt lat="48.69033" lon="-3.69484">
        <ele>29</ele>
        <time>2022-04-24T20:53:37Z</time>
      </trkpt>
      <trkpt lat="48.69038" lon="-3.69524">
        <ele>28</ele>
        <time>2022-04-24T20:53:42Z</time>
      </trkpt>
      <trkpt lat="48.69035" lon="-3.69561">
        <ele>28</ele>
        <time>2022-04-24T20:53:46Z</time>
      </trkpt>
      <trkpt lat="48.69017" lon="-3.69611">
        <ele>31</ele>
        <time>2022-04-24T20:53:53Z</time>
      </trkpt>
      <trkpt lat="48.68948" lon="-3.69777">
        <ele>30</ele>
        <time>2022-04-24T20:54:16Z</time>
      </trkpt>
      <trkpt lat="48.68938" lon="-3.69813">
        <ele>31</ele>
        <time>2022-04-24T20:54:21Z</time>
      </trkpt>
      <trkpt lat="48.68932" lon="-3.69836">
        <ele>31</ele>
        <time>2022-04-24T20:54:24Z</time>
      </trkpt>
      <trkpt lat="48.6891" lon="-3.69972">
        <ele>28</ele>
        <time>2022-04-24T20:54:40Z</time>
      </trkpt>
      <trkpt lat="48.68907" lon="-3.70005">
        <ele>26</ele>
        <time>2022-04-24T20:54:44Z</time>
      </trkpt>
      <trkpt lat="48.68906" lon="-3.70022">
        <ele>27</ele>
        <time>2022-04-24T20:54:46Z</time>
      </trkpt>
      <trkpt lat="48.68843" lon="-3.70038">
        <ele>35</ele>
        <time>2022-04-24T20:54:57Z</time>
      </trkpt>
      <trkpt lat="48.68683" lon="-3.7013">
        <ele>54</ele>
        <time>2022-04-24T20:55:28Z</time>
      </trkpt>
      <trkpt lat="48.68614" lon="-3.70148">
        <ele>58</ele>
        <time>2022-04-24T20:55:40Z</time>
      </trkpt>
      <trkpt lat="48.68541" lon="-3.70194">
        <ele>61</ele>
        <time>2022-04-24T20:55:54Z</time>
      </trkpt>
      <trkpt lat="48.6846" lon="-3.7023">
        <ele>64</ele>
        <time>2022-04-24T20:56:09Z</time>
      </trkpt>
      <trkpt lat="48.68338" lon="-3.70258">
        <ele>67</ele>
        <time>2022-04-24T20:56:31Z</time>
      </trkpt>
      <trkpt lat="48.68329" lon="-3.70263">
        <ele>67</ele>
        <time>2022-04-24T20:56:33Z</time>
      </trkpt>
      <trkpt lat="48.68295" lon="-3.70294">
        <ele>69</ele>
        <time>2022-04-24T20:56:40Z</time>
      </trkpt>
      <trkpt lat="48.68207" lon="-3.70392">
        <ele>72</ele>
        <time>2022-04-24T20:56:59Z</time>
      </trkpt>
      <trkpt lat="48.68136" lon="-3.70539">
        <ele>77</ele>
        <time>2022-04-24T20:57:21Z</time>
      </trkpt>
      <trkpt lat="48.6808" lon="-3.70611">
        <ele>78</ele>
        <time>2022-04-24T20:57:34Z</time>
      </trkpt>
      <trkpt lat="48.68065" lon="-3.70641">
        <ele>79</ele>
        <time>2022-04-24T20:57:38Z</time>
      </trkpt>
      <trkpt lat="48.68058" lon="-3.70661">
        <ele>79</ele>
        <time>2022-04-24T20:57:41Z</time>
      </trkpt>
      <trkpt lat="48.68053" lon="-3.70692">
        <ele>80</ele>
        <time>2022-04-24T20:57:45Z</time>
      </trkpt>
      <trkpt lat="48.68046" lon="-3.70816">
        <ele>82</ele>
        <time>2022-04-24T20:57:59Z</time>
      </trkpt>
      <trkpt lat="48.68042" lon="-3.70838">
        <ele>83</ele>
        <time>2022-04-24T20:58:02Z</time>
      </trkpt>
      <trkpt lat="48.68025" lon="-3.70886">
        <ele>84</ele>
        <time>2022-04-24T20:58:08Z</time>
      </trkpt>
      <trkpt lat="48.67983" lon="-3.70981">
        <ele>87</ele>
        <time>2022-04-24T20:58:22Z</time>
      </trkpt>
      <trkpt lat="48.68021" lon="-3.71047">
        <ele>88</ele>
        <time>2022-04-24T20:58:32Z</time>
      </trkpt>
      <trkpt lat="48.68114" lon="-3.71132">
        <ele>89</ele>
        <time>2022-04-24T20:58:51Z</time>
      </trkpt>
      <trkpt lat="48.68133" lon="-3.71154">
        <ele>89</ele>
        <time>2022-04-24T20:58:56Z</time>
      </trkpt>
      <trkpt lat="48.68155" lon="-3.71229">
        <ele>91</ele>
        <time>2022-04-24T20:59:05Z</time>
      </trkpt>
      <trkpt lat="48.68175" lon="-3.71278">
        <ele>93</ele>
        <time>2022-04-24T20:59:12Z</time>
      </trkpt>
      <trkpt lat="48.68314" lon="-3.71506">
        <ele>98</ele>
        <time>2022-04-24T20:59:49Z</time>
      </trkpt>
      <trkpt lat="48.68443" lon="-3.71621">
        <ele>99</ele>
        <time>2022-04-24T21:00:15Z</time>
      </trkpt>
      <trkpt lat="48.68463" lon="-3.71641">
        <ele>99</ele>
        <time>2022-04-24T21:00:19Z</time>
      </trkpt>
      <trkpt lat="48.68478" lon="-3.71659">
        <ele>99</ele>
        <time>2022-04-24T21:00:23Z</time>
      </trkpt>
      <trkpt lat="48.68637" lon="-3.71871">
        <ele>99</ele>
        <time>2022-04-24T21:01:01Z</time>
      </trkpt>
      <trkpt lat="48.68782" lon="-3.71936">
        <ele>98</ele>
        <time>2022-04-24T21:01:27Z</time>
      </trkpt>
      <trkpt lat="48.68903" lon="-3.72028">
        <ele>95</ele>
        <time>2022-04-24T21:01:52Z</time>
      </trkpt>
      <trkpt lat="48.68988" lon="-3.72052">
        <ele>96</ele>
        <time>2022-04-24T21:02:07Z</time>
      </trkpt>
      <trkpt lat="48.69072" lon="-3.72099">
        <ele>93</ele>
        <time>2022-04-24T21:02:23Z</time>
      </trkpt>
      <trkpt lat="48.6927" lon="-3.72258">
        <ele>90</ele>
        <time>2022-04-24T21:03:03Z</time>
      </trkpt>
      <trkpt lat="48.69337" lon="-3.72298">
        <ele>88</ele>
        <time>2022-04-24T21:03:16Z</time>
      </trkpt>
      <trkpt lat="48.69419" lon="-3.7234">
        <ele>86</ele>
        <time>2022-04-24T21:03:31Z</time>
      </trkpt>
      <trkpt lat="48.69531" lon="-3.72389">
        <ele>83</ele>
        <time>2022-04-24T21:03:52Z</time>
      </trkpt>
      <trkpt lat="48.69644" lon="-3.72444">
        <ele>79</ele>
        <time>2022-04-24T21:04:13Z</time>
      </trkpt>
      <trkpt lat="48.69674" lon="-3.72466">
        <ele>78</ele>
        <time>2022-04-24T21:04:19Z</time>
      </trkpt>
      <trkpt lat="48.6969" lon="-3.72481">
        <ele>77</ele>
        <time>2022-04-24T21:04:22Z</time>
      </trkpt>
      <trkpt lat="48.69736" lon="-3.72543">
        <ele>75</ele>
        <time>2022-04-24T21:04:33Z</time>
      </trkpt>
      <trkpt lat="48.69754" lon="-3.72562">
        <ele>74</ele>
        <time>2022-04-24T21:04:37Z</time>
      </trkpt>
      <trkpt lat="48.69777" lon="-3.72578">
        <ele>73</ele>
        <time>2022-04-24T21:04:41Z</time>
      </trkpt>
      <trkpt lat="48.6984" lon="-3.72601">
        <ele>69</ele>
        <time>2022-04-24T21:04:53Z</time>
      </trkpt>
      <trkpt lat="48.69878" lon="-3.72619">
        <ele>71</ele>
        <time>2022-04-24T21:05:00Z</time>
      </trkpt>
      <trkpt lat="48.69932" lon="-3.72667">
        <ele>76</ele>
        <time>2022-04-24T21:05:11Z</time>
      </trkpt>
      <trkpt lat="48.69952" lon="-3.7269">
        <ele>78</ele>
        <time>2022-04-24T21:05:16Z</time>
      </trkpt>
      <trkpt lat="48.69984" lon="-3.72742">
        <ele>80</ele>
        <time>2022-04-24T21:05:24Z</time>
      </trkpt>
      <trkpt lat="48.70049" lon="-3.72891">
        <ele>83</ele>
        <time>2022-04-24T21:05:45Z</time>
      </trkpt>
      <trkpt lat="48.70054" lon="-3.72915">
        <ele>83</ele>
        <time>2022-04-24T21:05:48Z</time>
      </trkpt>
      <trkpt lat="48.70046" lon="-3.72967">
        <ele>84</ele>
        <time>2022-04-24T21:05:54Z</time>
      </trkpt>
      <trkpt lat="48.70023" lon="-3.7301">
        <ele>84</ele>
        <time>2022-04-24T21:06:01Z</time>
      </trkpt>
      <trkpt lat="48.70016" lon="-3.73034">
        <ele>84</ele>
        <time>2022-04-24T21:06:04Z</time>
      </trkpt>
      <trkpt lat="48.70012" lon="-3.7306">
        <ele>84</ele>
        <time>2022-04-24T21:06:07Z</time>
      </trkpt>
      <trkpt lat="48.70025" lon="-3.73265">
        <ele>83</ele>
        <time>2022-04-24T21:06:31Z</time>
      </trkpt>
      <trkpt lat="48.7003" lon="-3.73286">
        <ele>84</ele>
        <time>2022-04-24T21:06:34Z</time>
      </trkpt>
      <trkpt lat="48.70036" lon="-3.73299">
        <ele>84</ele>
        <time>2022-04-24T21:06:36Z</time>
      </trkpt>
      <trkpt lat="48.70057" lon="-3.7331">
        <ele>84</ele>
        <time>2022-04-24T21:06:40Z</time>
      </trkpt>
      <trkpt lat="48.70069" lon="-3.73314">
        <ele>84</ele>
        <time>2022-04-24T21:06:42Z</time>
      </trkpt>
      <trkpt lat="48.70076" lon="-3.7332">
        <ele>85</ele>
        <time>2022-04-24T21:06:43Z</time>
      </trkpt>
      <trkpt lat="48.70081" lon="-3.73328">
        <ele>85</ele>
        <time>2022-04-24T21:06:44Z</time>
      </trkpt>
      <trkpt lat="48.70085" lon="-3.73345">
        <ele>85</ele>
        <time>2022-04-24T21:06:47Z</time>
      </trkpt>
      <trkpt lat="48.70088" lon="-3.73375">
        <ele>85</ele>
        <time>2022-04-24T21:06:50Z</time>
      </trkpt>
      <trkpt lat="48.70088" lon="-3.73409">
        <ele>85</ele>
        <time>2022-04-24T21:06:54Z</time>
      </trkpt>
      <trkpt lat="48.70092" lon="-3.73476">
        <ele>85</ele>
        <time>2022-04-24T21:07:02Z</time>
      </trkpt>
      <trkpt lat="48.70089" lon="-3.73531">
        <ele>85</ele>
        <time>2022-04-24T21:07:09Z</time>
      </trkpt>
      <trkpt lat="48.70091" lon="-3.7355">
        <ele>84</ele>
        <time>2022-04-24T21:07:11Z</time>
      </trkpt>
      <trkpt lat="48.70088" lon="-3.73597">
        <ele>84</ele>
        <time>2022-04-24T21:07:16Z</time>
      </trkpt>
      <trkpt lat="48.70082" lon="-3.73619">
        <ele>84</ele>
        <time>2022-04-24T21:07:19Z</time>
      </trkpt>
      <trkpt lat="48.7006" lon="-3.73689">
        <ele>83</ele>
        <time>2022-04-24T21:07:28Z</time>
      </trkpt>
      <trkpt lat="48.70054" lon="-3.73714">
        <ele>84</ele>
        <time>2022-04-24T21:07:31Z</time>
      </trkpt>
      <trkpt lat="48.70048" lon="-3.73757">
        <ele>83</ele>
        <time>2022-04-24T21:07:37Z</time>
      </trkpt>
      <trkpt lat="48.70048" lon="-3.73777">
        <ele>83</ele>
        <time>2022-04-24T21:07:39Z</time>
      </trkpt>
      <trkpt lat="48.70058" lon="-3.73934">
        <ele>84</ele>
        <time>2022-04-24T21:07:57Z</time>
      </trkpt>
      <trkpt lat="48.70062" lon="-3.73962">
        <ele>83</ele>
        <time>2022-04-24T21:08:01Z</time>
      </trkpt>
      <trkpt lat="48.70067" lon="-3.73975">
        <ele>83</ele>
        <time>2022-04-24T21:08:03Z</time>
      </trkpt>
      <trkpt lat="48.70074" lon="-3.73983">
        <ele>83</ele>
        <time>2022-04-24T21:08:04Z</time>
      </trkpt>
      <trkpt lat="48.70088" lon="-3.73994">
        <ele>83</ele>
        <time>2022-04-24T21:08:07Z</time>
      </trkpt>
      <trkpt lat="48.70099" lon="-3.73997">
        <ele>83</ele>
        <time>2022-04-24T21:08:09Z</time>
      </trkpt>
      <trkpt lat="48.70232" lon="-3.74013">
        <ele>83</ele>
        <time>2022-04-24T21:08:33Z</time>
      </trkpt>
      <trkpt lat="48.70252" lon="-3.74012">
        <ele>83</ele>
        <time>2022-04-24T21:08:36Z</time>
      </trkpt>
      <trkpt lat="48.70306" lon="-3.73998">
        <ele>81</ele>
        <time>2022-04-24T21:08:46Z</time>
      </trkpt>
      <trkpt lat="48.70335" lon="-3.73999">
        <ele>80</ele>
        <time>2022-04-24T21:08:51Z</time>
      </trkpt>
      <trkpt lat="48.70362" lon="-3.74007">
        <ele>78</ele>
        <time>2022-04-24T21:08:56Z</time>
      </trkpt>
      <trkpt lat="48.70374" lon="-3.74024">
        <ele>77</ele>
        <time>2022-04-24T21:08:59Z</time>
      </trkpt>
      <trkpt lat="48.70376" lon="-3.74042">
        <ele>76</ele>
        <time>2022-04-24T21:09:01Z</time>
      </trkpt>
      <trkpt lat="48.70376" lon="-3.74062">
        <ele>76</ele>
        <time>2022-04-24T21:09:03Z</time>
      </trkpt>
      <trkpt lat="48.70361" lon="-3.74183">
        <ele>77</ele>
        <time>2022-04-24T21:09:18Z</time>
      </trkpt>
      <trkpt lat="48.70357" lon="-3.74234">
        <ele>78</ele>
        <time>2022-04-24T21:09:24Z</time>
      </trkpt>
      <trkpt lat="48.70339" lon="-3.7433">
        <ele>81</ele>
        <time>2022-04-24T21:09:36Z</time>
      </trkpt>
      <trkpt lat="48.70332" lon="-3.74379">
        <ele>82</ele>
        <time>2022-04-24T21:09:42Z</time>
      </trkpt>
      <trkpt lat="48.70324" lon="-3.74493">
        <ele>83</ele>
        <time>2022-04-24T21:09:55Z</time>
      </trkpt>
      <trkpt lat="48.70324" lon="-3.7452">
        <ele>83</ele>
        <time>2022-04-24T21:09:58Z</time>
      </trkpt>
      <trkpt lat="48.70331" lon="-3.74537">
        <ele>83</ele>
        <time>2022-04-24T21:10:00Z</time>
      </trkpt>
      <trkpt lat="48.70354" lon="-3.74573">
        <ele>83</ele>
        <time>2022-04-24T21:10:06Z</time>
      </trkpt>
      <trkpt lat="48.70358" lon="-3.74583">
        <ele>82</ele>
        <time>2022-04-24T21:10:08Z</time>
      </trkpt>
      <trkpt lat="48.7036" lon="-3.74602">
        <ele>82</ele>
        <time>2022-04-24T21:10:10Z</time>
      </trkpt>
      <trkpt lat="48.7036" lon="-3.74624">
        <ele>83</ele>
        <time>2022-04-24T21:10:13Z</time>
      </trkpt>
      <trkpt lat="48.70357" lon="-3.74646">
        <ele>83</ele>
        <time>2022-04-24T21:10:15Z</time>
      </trkpt>
      <trkpt lat="48.70345" lon="-3.74682">
        <ele>83</ele>
        <time>2022-04-24T21:10:20Z</time>
      </trkpt>
      <trkpt lat="48.70345" lon="-3.74776">
        <ele>83</ele>
        <time>2022-04-24T21:10:31Z</time>
      </trkpt>
      <trkpt lat="48.70355" lon="-3.74846">
        <ele>83</ele>
        <time>2022-04-24T21:10:39Z</time>
      </trkpt>
      <trkpt lat="48.70413" lon="-3.75089">
        <ele>79</ele>
        <time>2022-04-24T21:11:10Z</time>
      </trkpt>
      <trkpt lat="48.70483" lon="-3.75108">
        <ele>73</ele>
        <time>2022-04-24T21:11:22Z</time>
      </trkpt>
      <trkpt lat="48.705" lon="-3.75116">
        <ele>71</ele>
        <time>2022-04-24T21:11:26Z</time>
      </trkpt>
      <trkpt lat="48.70529" lon="-3.75148">
        <ele>67</ele>
        <time>2022-04-24T21:11:32Z</time>
      </trkpt>
      <trkpt lat="48.70538" lon="-3.75153">
        <ele>66</ele>
        <time>2022-04-24T21:11:34Z</time>
      </trkpt>
      <trkpt lat="48.70548" lon="-3.75155">
        <ele>65</ele>
        <time>2022-04-24T21:11:35Z</time>
      </trkpt>
      <trkpt lat="48.70556" lon="-3.75154">
        <ele>64</ele>
        <time>2022-04-24T21:11:37Z</time>
      </trkpt>
      <trkpt lat="48.70572" lon="-3.75141">
        <ele>62</ele>
        <time>2022-04-24T21:11:40Z</time>
      </trkpt>
      <trkpt lat="48.70589" lon="-3.75123">
        <ele>60</ele>
        <time>2022-04-24T21:11:44Z</time>
      </trkpt>
      <trkpt lat="48.70603" lon="-3.75111">
        <ele>58</ele>
        <time>2022-04-24T21:11:47Z</time>
      </trkpt>
      <trkpt lat="48.7062" lon="-3.75103">
        <ele>54</ele>
        <time>2022-04-24T21:11:50Z</time>
      </trkpt>
      <trkpt lat="48.70624" lon="-3.75119">
        <ele>54</ele>
        <time>2022-04-24T21:11:52Z</time>
      </trkpt>
      <trkpt lat="48.7064" lon="-3.75163">
        <ele>55</ele>
        <time>2022-04-24T21:11:58Z</time>
      </trkpt>
      <trkpt lat="48.70652" lon="-3.75183">
        <ele>56</ele>
        <time>2022-04-24T21:12:01Z</time>
      </trkpt>
      <trkpt lat="48.70667" lon="-3.75199">
        <ele>56</ele>
        <time>2022-04-24T21:12:04Z</time>
      </trkpt>
      <trkpt lat="48.70718" lon="-3.75244">
        <ele>54</ele>
        <time>2022-04-24T21:12:15Z</time>
      </trkpt>
      <trkpt lat="48.70743" lon="-3.75273">
        <ele>54</ele>
        <time>2022-04-24T21:12:20Z</time>
      </trkpt>
      <trkpt lat="48.70759" lon="-3.75301">
        <ele>54</ele>
        <time>2022-04-24T21:12:25Z</time>
      </trkpt>
      <trkpt lat="48.70773" lon="-3.75344">
        <ele>54</ele>
        <time>2022-04-24T21:12:30Z</time>
      </trkpt>
      <trkpt lat="48.70776" lon="-3.75366">
        <ele>54</ele>
        <time>2022-04-24T21:12:33Z</time>
      </trkpt>
      <trkpt lat="48.70786" lon="-3.75446">
        <ele>53</ele>
        <time>2022-04-24T21:12:42Z</time>
      </trkpt>
      <trkpt lat="48.70805" lon="-3.75626">
        <ele>45</ele>
        <time>2022-04-24T21:13:04Z</time>
      </trkpt>
      <trkpt lat="48.70813" lon="-3.75729">
        <ele>48</ele>
        <time>2022-04-24T21:13:16Z</time>
      </trkpt>
      <trkpt lat="48.70811" lon="-3.75763">
        <ele>51</ele>
        <time>2022-04-24T21:13:20Z</time>
      </trkpt>
      <trkpt lat="48.70806" lon="-3.75792">
        <ele>53</ele>
        <time>2022-04-24T21:13:24Z</time>
      </trkpt>
      <trkpt lat="48.70795" lon="-3.75824">
        <ele>56</ele>
        <time>2022-04-24T21:13:28Z</time>
      </trkpt>
      <trkpt lat="48.70769" lon="-3.75872">
        <ele>56</ele>
        <time>2022-04-24T21:13:35Z</time>
      </trkpt>
      <trkpt lat="48.70759" lon="-3.75886">
        <ele>56</ele>
        <time>2022-04-24T21:13:38Z</time>
      </trkpt>
      <trkpt lat="48.70746" lon="-3.75898">
        <ele>57</ele>
        <time>2022-04-24T21:13:40Z</time>
      </trkpt>
      <trkpt lat="48.70714" lon="-3.75919">
        <ele>59</ele>
        <time>2022-04-24T21:13:46Z</time>
      </trkpt>
      <trkpt lat="48.70665" lon="-3.75938">
        <ele>63</ele>
        <time>2022-04-24T21:13:55Z</time>
      </trkpt>
      <trkpt lat="48.70651" lon="-3.75947">
        <ele>63</ele>
        <time>2022-04-24T21:13:58Z</time>
      </trkpt>
      <trkpt lat="48.70632" lon="-3.75971">
        <ele>62</ele>
        <time>2022-04-24T21:14:03Z</time>
      </trkpt>
      <trkpt lat="48.7062" lon="-3.76002">
        <ele>61</ele>
        <time>2022-04-24T21:14:07Z</time>
      </trkpt>
      <trkpt lat="48.70616" lon="-3.76032">
        <ele>63</ele>
        <time>2022-04-24T21:14:10Z</time>
      </trkpt>
      <trkpt lat="48.70617" lon="-3.76061">
        <ele>64</ele>
        <time>2022-04-24T21:14:14Z</time>
      </trkpt>
      <trkpt lat="48.7062" lon="-3.76077">
        <ele>65</ele>
        <time>2022-04-24T21:14:16Z</time>
      </trkpt>
      <trkpt lat="48.70626" lon="-3.76092">
        <ele>65</ele>
        <time>2022-04-24T21:14:18Z</time>
      </trkpt>
      <trkpt lat="48.70636" lon="-3.76109">
        <ele>65</ele>
        <time>2022-04-24T21:14:20Z</time>
      </trkpt>
      <trkpt lat="48.70644" lon="-3.7612">
        <ele>66</ele>
        <time>2022-04-24T21:14:22Z</time>
      </trkpt>
      <trkpt lat="48.70732" lon="-3.76196">
        <ele>67</ele>
        <time>2022-04-24T21:14:40Z</time>
      </trkpt>
      <trkpt lat="48.70741" lon="-3.76206">
        <ele>67</ele>
        <time>2022-04-24T21:14:42Z</time>
      </trkpt>
      <trkpt lat="48.70751" lon="-3.76221">
        <ele>66</ele>
        <time>2022-04-24T21:14:45Z</time>
      </trkpt>
      <trkpt lat="48.70759" lon="-3.76237">
        <ele>63</ele>
        <time>2022-04-24T21:14:47Z</time>
      </trkpt>
      <trkpt lat="48.70768" lon="-3.7626">
        <ele>60</ele>
        <time>2022-04-24T21:14:50Z</time>
      </trkpt>
      <trkpt lat="48.70779" lon="-3.76303">
        <ele>59</ele>
        <time>2022-04-24T21:14:56Z</time>
      </trkpt>
      <trkpt lat="48.70788" lon="-3.76356">
        <ele>58</ele>
        <time>2022-04-24T21:15:02Z</time>
      </trkpt>
      <trkpt lat="48.70799" lon="-3.76467">
        <ele>52</ele>
        <time>2022-04-24T21:15:15Z</time>
      </trkpt>
      <trkpt lat="48.70798" lon="-3.76489">
        <ele>51</ele>
        <time>2022-04-24T21:15:18Z</time>
      </trkpt>
      <trkpt lat="48.70795" lon="-3.76512">
        <ele>49</ele>
        <time>2022-04-24T21:15:21Z</time>
      </trkpt>
      <trkpt lat="48.70791" lon="-3.76528">
        <ele>47</ele>
        <time>2022-04-24T21:15:23Z</time>
      </trkpt>
      <trkpt lat="48.70782" lon="-3.76549">
        <ele>44</ele>
        <time>2022-04-24T21:15:26Z</time>
      </trkpt>
      <trkpt lat="48.70774" lon="-3.76563">
        <ele>43</ele>
        <time>2022-04-24T21:15:28Z</time>
      </trkpt>
      <trkpt lat="48.70762" lon="-3.76577">
        <ele>42</ele>
        <time>2022-04-24T21:15:31Z</time>
      </trkpt>
      <trkpt lat="48.70742" lon="-3.76594">
        <ele>41</ele>
        <time>2022-04-24T21:15:35Z</time>
      </trkpt>
      <trkpt lat="48.70715" lon="-3.76613">
        <ele>40</ele>
        <time>2022-04-24T21:15:40Z</time>
      </trkpt>
      <trkpt lat="48.7069" lon="-3.76636">
        <ele>40</ele>
        <time>2022-04-24T21:15:45Z</time>
      </trkpt>
      <trkpt lat="48.70679" lon="-3.76654">
        <ele>39</ele>
        <time>2022-04-24T21:15:48Z</time>
      </trkpt>
      <trkpt lat="48.70666" lon="-3.76691">
        <ele>40</ele>
        <time>2022-04-24T21:15:53Z</time>
      </trkpt>
      <trkpt lat="48.70661" lon="-3.76726">
        <ele>39</ele>
        <time>2022-04-24T21:15:57Z</time>
      </trkpt>
      <trkpt lat="48.7066" lon="-3.76739">
        <ele>39</ele>
        <time>2022-04-24T21:15:59Z</time>
      </trkpt>
      <trkpt lat="48.70662" lon="-3.76763">
        <ele>39</ele>
        <time>2022-04-24T21:16:02Z</time>
      </trkpt>
      <trkpt lat="48.70668" lon="-3.76798">
        <ele>39</ele>
        <time>2022-04-24T21:16:06Z</time>
      </trkpt>
      <trkpt lat="48.70672" lon="-3.7684">
        <ele>38</ele>
        <time>2022-04-24T21:16:11Z</time>
      </trkpt>
      <trkpt lat="48.70671" lon="-3.76857">
        <ele>39</ele>
        <time>2022-04-24T21:16:13Z</time>
      </trkpt>
      <trkpt lat="48.70666" lon="-3.76888">
        <ele>42</ele>
        <time>2022-04-24T21:16:17Z</time>
      </trkpt>
      <trkpt lat="48.70658" lon="-3.76917">
        <ele>44</ele>
        <time>2022-04-24T21:16:20Z</time>
      </trkpt>
      <trkpt lat="48.70527" lon="-3.77296">
        <ele>35</ele>
        <time>2022-04-24T21:17:10Z</time>
      </trkpt>
      <trkpt lat="48.70508" lon="-3.77345">
        <ele>33</ele>
        <time>2022-04-24T21:17:17Z</time>
      </trkpt>
      <trkpt lat="48.70494" lon="-3.77369">
        <ele>29</ele>
        <time>2022-04-24T21:17:21Z</time>
      </trkpt>
      <trkpt lat="48.70445" lon="-3.77424">
        <ele>22</ele>
        <time>2022-04-24T21:17:32Z</time>
      </trkpt>
      <trkpt lat="48.70278" lon="-3.77583">
        <ele>8</ele>
        <time>2022-04-24T21:18:07Z</time>
      </trkpt>
      <trkpt lat="48.70264" lon="-3.77602">
        <ele>8</ele>
        <time>2022-04-24T21:18:10Z</time>
      </trkpt>
      <trkpt lat="48.70252" lon="-3.77624">
        <ele>8</ele>
        <time>2022-04-24T21:18:14Z</time>
      </trkpt>
      <trkpt lat="48.70236" lon="-3.77667">
        <ele>6</ele>
        <time>2022-04-24T21:18:19Z</time>
      </trkpt>
      <trkpt lat="48.70096" lon="-3.77607">
        <ele>11</ele>
        <time>2022-04-24T21:18:45Z</time>
      </trkpt>
      <trkpt lat="48.70024" lon="-3.77571">
        <ele>17</ele>
        <time>2022-04-24T21:18:59Z</time>
      </trkpt>
      <trkpt lat="48.69993" lon="-3.7755">
        <ele>20</ele>
        <time>2022-04-24T21:19:05Z</time>
      </trkpt>
      <trkpt lat="48.69865" lon="-3.77412">
        <ele>23</ele>
        <time>2022-04-24T21:19:33Z</time>
      </trkpt>
      <trkpt lat="48.69811" lon="-3.7737">
        <ele>22</ele>
        <time>2022-04-24T21:19:43Z</time>
      </trkpt>
      <trkpt lat="48.69774" lon="-3.77352">
        <ele>19</ele>
        <time>2022-04-24T21:19:50Z</time>
      </trkpt>
      <trkpt lat="48.69746" lon="-3.77345">
        <ele>16</ele>
        <time>2022-04-24T21:19:55Z</time>
      </trkpt>
      <trkpt lat="48.69714" lon="-3.77343">
        <ele>15</ele>
        <time>2022-04-24T21:20:01Z</time>
      </trkpt>
      <trkpt lat="48.69597" lon="-3.7737">
        <ele>12</ele>
        <time>2022-04-24T21:20:22Z</time>
      </trkpt>
      <trkpt lat="48.69508" lon="-3.77394">
        <ele>13</ele>
        <time>2022-04-24T21:20:38Z</time>
      </trkpt>
      <trkpt lat="48.69482" lon="-3.77396">
        <ele>14</ele>
        <time>2022-04-24T21:20:43Z</time>
      </trkpt>
      <trkpt lat="48.69468" lon="-3.77394">
        <ele>14</ele>
        <time>2022-04-24T21:20:45Z</time>
      </trkpt>
      <trkpt lat="48.69449" lon="-3.77387">
        <ele>14</ele>
        <time>2022-04-24T21:20:49Z</time>
      </trkpt>
      <trkpt lat="48.6943" lon="-3.77376">
        <ele>15</ele>
        <time>2022-04-24T21:20:53Z</time>
      </trkpt>
      <trkpt lat="48.69378" lon="-3.77335">
        <ele>16</ele>
        <time>2022-04-24T21:21:03Z</time>
      </trkpt>
      <trkpt lat="48.6937" lon="-3.77323">
        <ele>17</ele>
        <time>2022-04-24T21:21:05Z</time>
      </trkpt>
      <trkpt lat="48.69302" lon="-3.77369">
        <ele>17</ele>
        <time>2022-04-24T21:21:18Z</time>
      </trkpt>
      <trkpt lat="48.69262" lon="-3.77345">
        <ele>19</ele>
        <time>2022-04-24T21:21:26Z</time>
      </trkpt>
      <trkpt lat="48.69239" lon="-3.77326">
        <ele>20</ele>
        <time>2022-04-24T21:21:31Z</time>
      </trkpt>
      <trkpt lat="48.69193" lon="-3.77328">
        <ele>20</ele>
        <time>2022-04-24T21:21:39Z</time>
      </trkpt>
      <trkpt lat="48.69163" lon="-3.77323">
        <ele>21</ele>
        <time>2022-04-24T21:21:44Z</time>
      </trkpt>
      <trkpt lat="48.69071" lon="-3.773">
        <ele>33</ele>
        <time>2022-04-24T21:22:01Z</time>
      </trkpt>
      <trkpt lat="48.69048" lon="-3.77298">
        <ele>36</ele>
        <time>2022-04-24T21:22:05Z</time>
      </trkpt>
      <trkpt lat="48.69024" lon="-3.77304">
        <ele>39</ele>
        <time>2022-04-24T21:22:09Z</time>
      </trkpt>
      <trkpt lat="48.69004" lon="-3.77314">
        <ele>43</ele>
        <time>2022-04-24T21:22:13Z</time>
      </trkpt>
      <trkpt lat="48.68947" lon="-3.77321">
        <ele>49</ele>
        <time>2022-04-24T21:22:23Z</time>
      </trkpt>
      <trkpt lat="48.68895" lon="-3.77332">
        <ele>54</ele>
        <time>2022-04-24T21:22:32Z</time>
      </trkpt>
      <trkpt lat="48.68861" lon="-3.7735">
        <ele>57</ele>
        <time>2022-04-24T21:22:39Z</time>
      </trkpt>
      <trkpt lat="48.68802" lon="-3.77401">
        <ele>62</ele>
        <time>2022-04-24T21:22:51Z</time>
      </trkpt>
      <trkpt lat="48.68784" lon="-3.77407">
        <ele>63</ele>
        <time>2022-04-24T21:22:54Z</time>
      </trkpt>
      <trkpt lat="48.68743" lon="-3.77413">
        <ele>64</ele>
        <time>2022-04-24T21:23:01Z</time>
      </trkpt>
      <trkpt lat="48.68691" lon="-3.77426">
        <ele>68</ele>
        <time>2022-04-24T21:23:11Z</time>
      </trkpt>
      <trkpt lat="48.68681" lon="-3.7743">
        <ele>68</ele>
        <time>2022-04-24T21:23:13Z</time>
      </trkpt>
      <trkpt lat="48.68592" lon="-3.77483">
        <ele>74</ele>
        <time>2022-04-24T21:23:30Z</time>
      </trkpt>
      <trkpt lat="48.68575" lon="-3.77498">
        <ele>75</ele>
        <time>2022-04-24T21:23:33Z</time>
      </trkpt>
      <trkpt lat="48.68526" lon="-3.77573">
        <ele>78</ele>
        <time>2022-04-24T21:23:46Z</time>
      </trkpt>
      <trkpt lat="48.685" lon="-3.7763">
        <ele>79</ele>
        <time>2022-04-24T21:23:54Z</time>
      </trkpt>
      <trkpt lat="48.6849" lon="-3.77661">
        <ele>79</ele>
        <time>2022-04-24T21:23:58Z</time>
      </trkpt>
      <trkpt lat="48.68482" lon="-3.77701">
        <ele>79</ele>
        <time>2022-04-24T21:24:03Z</time>
      </trkpt>
      <trkpt lat="48.68474" lon="-3.77736">
        <ele>80</ele>
        <time>2022-04-24T21:24:07Z</time>
      </trkpt>
      <trkpt lat="48.68465" lon="-3.778">
        <ele>80</ele>
        <time>2022-04-24T21:24:15Z</time>
      </trkpt>
      <trkpt lat="48.68492" lon="-3.77852">
        <ele>80</ele>
        <time>2022-04-24T21:24:22Z</time>
      </trkpt>
      <trkpt lat="48.68523" lon="-3.77898">
        <ele>80</ele>
        <time>2022-04-24T21:24:30Z</time>
      </trkpt>
      <trkpt lat="48.68558" lon="-3.77937">
        <ele>79</ele>
        <time>2022-04-24T21:24:38Z</time>
      </trkpt>
      <trkpt lat="48.68714" lon="-3.7806">
        <ele>77</ele>
        <time>2022-04-24T21:25:09Z</time>
      </trkpt>
      <trkpt lat="48.68746" lon="-3.78092">
        <ele>77</ele>
        <time>2022-04-24T21:25:16Z</time>
      </trkpt>
      <trkpt lat="48.68809" lon="-3.78162">
        <ele>78</ele>
        <time>2022-04-24T21:25:30Z</time>
      </trkpt>
      <trkpt lat="48.68861" lon="-3.78226">
        <ele>76</ele>
        <time>2022-04-24T21:25:42Z</time>
      </trkpt>
      <trkpt lat="48.68893" lon="-3.78289">
        <ele>75</ele>
        <time>2022-04-24T21:25:51Z</time>
      </trkpt>
      <trkpt lat="48.68924" lon="-3.78368">
        <ele>75</ele>
        <time>2022-04-24T21:26:02Z</time>
      </trkpt>
      <trkpt lat="48.68929" lon="-3.78368">
        <ele>75</ele>
        <time>2022-04-24T21:26:03Z</time>
      </trkpt>
      <trkpt lat="48.68934" lon="-3.78372">
        <ele>75</ele>
        <time>2022-04-24T21:26:04Z</time>
      </trkpt>
      <trkpt lat="48.68937" lon="-3.78378">
        <ele>75</ele>
        <time>2022-04-24T21:26:05Z</time>
      </trkpt>
      <trkpt lat="48.68939" lon="-3.78386">
        <ele>75</ele>
        <time>2022-04-24T21:26:06Z</time>
      </trkpt>
      <trkpt lat="48.68938" lon="-3.78394">
        <ele>75</ele>
        <time>2022-04-24T21:26:07Z</time>
      </trkpt>
      <trkpt lat="48.68986" lon="-3.78408">
        <ele>74</ele>
        <time>2022-04-24T21:26:15Z</time>
      </trkpt>
      <trkpt lat="48.69022" lon="-3.78431">
        <ele>73</ele>
        <time>2022-04-24T21:26:22Z</time>
      </trkpt>
      <trkpt lat="48.69186" lon="-3.78548">
        <ele>72</ele>
        <time>2022-04-24T21:26:55Z</time>
      </trkpt>
      <trkpt lat="48.69194" lon="-3.78547">
        <ele>72</ele>
        <time>2022-04-24T21:26:56Z</time>
      </trkpt>
      <trkpt lat="48.69199" lon="-3.7855">
        <ele>71</ele>
        <time>2022-04-24T21:26:57Z</time>
      </trkpt>
      <trkpt lat="48.69206" lon="-3.78549">
        <ele>71</ele>
        <time>2022-04-24T21:26:58Z</time>
      </trkpt>
      <trkpt lat="48.6921" lon="-3.78552">
        <ele>71</ele>
        <time>2022-04-24T21:26:59Z</time>
      </trkpt>
      <trkpt lat="48.69217" lon="-3.78543">
        <ele>71</ele>
        <time>2022-04-24T21:27:01Z</time>
      </trkpt>
      <trkpt lat="48.69244" lon="-3.7852">
        <ele>70</ele>
        <time>2022-04-24T21:27:06Z</time>
      </trkpt>
      <trkpt lat="48.69283" lon="-3.78506">
        <ele>70</ele>
        <time>2022-04-24T21:27:13Z</time>
      </trkpt>
      <trkpt lat="48.69297" lon="-3.78505">
        <ele>71</ele>
        <time>2022-04-24T21:27:16Z</time>
      </trkpt>
      <trkpt lat="48.69448" lon="-3.78531">
        <ele>71</ele>
        <time>2022-04-24T21:27:43Z</time>
      </trkpt>
      <trkpt lat="48.69508" lon="-3.78532">
        <ele>71</ele>
        <time>2022-04-24T21:27:54Z</time>
      </trkpt>
      <trkpt lat="48.69541" lon="-3.78537">
        <ele>72</ele>
        <time>2022-04-24T21:27:59Z</time>
      </trkpt>
      <trkpt lat="48.69569" lon="-3.7856">
        <ele>74</ele>
        <time>2022-04-24T21:28:05Z</time>
      </trkpt>
      <trkpt lat="48.69572" lon="-3.78594">
        <ele>74</ele>
        <time>2022-04-24T21:28:09Z</time>
      </trkpt>
      <trkpt lat="48.69576" lon="-3.78716">
        <ele>73</ele>
        <time>2022-04-24T21:28:24Z</time>
      </trkpt>
      <trkpt lat="48.69575" lon="-3.78754">
        <ele>72</ele>
        <time>2022-04-24T21:28:28Z</time>
      </trkpt>
      <trkpt lat="48.69569" lon="-3.78824">
        <ele>73</ele>
        <time>2022-04-24T21:28:36Z</time>
      </trkpt>
      <trkpt lat="48.69567" lon="-3.78887">
        <ele>72</ele>
        <time>2022-04-24T21:28:44Z</time>
      </trkpt>
      <trkpt lat="48.69573" lon="-3.78955">
        <ele>72</ele>
        <time>2022-04-24T21:28:52Z</time>
      </trkpt>
      <trkpt lat="48.69578" lon="-3.78987">
        <ele>73</ele>
        <time>2022-04-24T21:28:56Z</time>
      </trkpt>
      <trkpt lat="48.69594" lon="-3.79032">
        <ele>74</ele>
        <time>2022-04-24T21:29:02Z</time>
      </trkpt>
      <trkpt lat="48.69602" lon="-3.79074">
        <ele>76</ele>
        <time>2022-04-24T21:29:07Z</time>
      </trkpt>
      <trkpt lat="48.69603" lon="-3.7909">
        <ele>76</ele>
        <time>2022-04-24T21:29:09Z</time>
      </trkpt>
      <trkpt lat="48.696" lon="-3.79104">
        <ele>77</ele>
        <time>2022-04-24T21:29:10Z</time>
      </trkpt>
      <trkpt lat="48.69591" lon="-3.79115">
        <ele>77</ele>
        <time>2022-04-24T21:29:12Z</time>
      </trkpt>
      <trkpt lat="48.69607" lon="-3.79166">
        <ele>79</ele>
        <time>2022-04-24T21:29:19Z</time>
      </trkpt>
      <trkpt lat="48.69633" lon="-3.79172">
        <ele>79</ele>
        <time>2022-04-24T21:29:24Z</time>
      </trkpt>
      <trkpt lat="48.69647" lon="-3.79169">
        <ele>78</ele>
        <time>2022-04-24T21:29:26Z</time>
      </trkpt>
      <trkpt lat="48.69691" lon="-3.79153">
        <ele>78</ele>
        <time>2022-04-24T21:29:34Z</time>
      </trkpt>
      <trkpt lat="48.69647" lon="-3.79169">
        <ele>78</ele>
        <time>2022-04-24T21:29:42Z</time>
      </trkpt>
      <trkpt lat="48.69633" lon="-3.79172">
        <ele>79</ele>
        <time>2022-04-24T21:29:45Z</time>
      </trkpt>
      <trkpt lat="48.69641" lon="-3.79232">
        <ele>80</ele>
        <time>2022-04-24T21:29:52Z</time>
      </trkpt>
      <trkpt lat="48.69647" lon="-3.79254">
        <ele>80</ele>
        <time>2022-04-24T21:29:55Z</time>
      </trkpt>
      <trkpt lat="48.69664" lon="-3.79287">
        <ele>80</ele>
        <time>2022-04-24T21:30:00Z</time>
      </trkpt>
      <trkpt lat="48.69694" lon="-3.79407">
        <ele>83</ele>
        <time>2022-04-24T21:30:15Z</time>
      </trkpt>
      <trkpt lat="48.69754" lon="-3.79524">
        <ele>85</ele>
        <time>2022-04-24T21:30:32Z</time>
      </trkpt>
      <trkpt lat="48.69799" lon="-3.79624">
        <ele>86</ele>
        <time>2022-04-24T21:30:46Z</time>
      </trkpt>
      <trkpt lat="48.69815" lon="-3.79689">
        <ele>87</ele>
        <time>2022-04-24T21:30:55Z</time>
      </trkpt>
      <trkpt lat="48.69834" lon="-3.79787">
        <ele>88</ele>
        <time>2022-04-24T21:31:07Z</time>
      </trkpt>
      <trkpt lat="48.69853" lon="-3.79851">
        <ele>87</ele>
        <time>2022-04-24T21:31:15Z</time>
      </trkpt>
      <trkpt lat="48.69867" lon="-3.79892">
        <ele>86</ele>
        <time>2022-04-24T21:31:20Z</time>
      </trkpt>
      <trkpt lat="48.69876" lon="-3.79909">
        <ele>86</ele>
        <time>2022-04-24T21:31:23Z</time>
      </trkpt>
      <trkpt lat="48.69891" lon="-3.79933">
        <ele>85</ele>
        <time>2022-04-24T21:31:27Z</time>
      </trkpt>
      <trkpt lat="48.69912" lon="-3.79951">
        <ele>84</ele>
        <time>2022-04-24T21:31:31Z</time>
      </trkpt>
      <trkpt lat="48.69997" lon="-3.79999">
        <ele>81</ele>
        <time>2022-04-24T21:31:47Z</time>
      </trkpt>
      <trkpt lat="48.70047" lon="-3.80039">
        <ele>76</ele>
        <time>2022-04-24T21:31:57Z</time>
      </trkpt>
      <trkpt lat="48.70057" lon="-3.8005">
        <ele>76</ele>
        <time>2022-04-24T21:31:59Z</time>
      </trkpt>
      <trkpt lat="48.7008" lon="-3.80088">
        <ele>73</ele>
        <time>2022-04-24T21:32:05Z</time>
      </trkpt>
      <trkpt lat="48.70116" lon="-3.80179">
        <ele>72</ele>
        <time>2022-04-24T21:32:18Z</time>
      </trkpt>
      <trkpt lat="48.70144" lon="-3.80159">
        <ele>71</ele>
        <time>2022-04-24T21:32:23Z</time>
      </trkpt>
      <trkpt lat="48.70226" lon="-3.80095">
        <ele>67</ele>
        <time>2022-04-24T21:32:40Z</time>
      </trkpt>
      <trkpt lat="48.7028" lon="-3.8004">
        <ele>65</ele>
        <time>2022-04-24T21:32:51Z</time>
      </trkpt>
      <trkpt lat="48.70293" lon="-3.80038">
        <ele>65</ele>
        <time>2022-04-24T21:32:54Z</time>
      </trkpt>
      <trkpt lat="48.70308" lon="-3.8004">
        <ele>66</ele>
        <time>2022-04-24T21:32:56Z</time>
      </trkpt>
      <trkpt lat="48.70327" lon="-3.80051">
        <ele>66</ele>
        <time>2022-04-24T21:33:00Z</time>
      </trkpt>
      <trkpt lat="48.70336" lon="-3.80052">
        <ele>67</ele>
        <time>2022-04-24T21:33:02Z</time>
      </trkpt>
      <trkpt lat="48.70348" lon="-3.80047">
        <ele>66</ele>
        <time>2022-04-24T21:33:04Z</time>
      </trkpt>
      <trkpt lat="48.70425" lon="-3.79965">
        <ele>63</ele>
        <time>2022-04-24T21:33:21Z</time>
      </trkpt>
      <trkpt lat="48.70438" lon="-3.79957">
        <ele>63</ele>
        <time>2022-04-24T21:33:23Z</time>
      </trkpt>
      <trkpt lat="48.70442" lon="-3.79957">
        <ele>63</ele>
        <time>2022-04-24T21:33:24Z</time>
      </trkpt>
      <trkpt lat="48.70451" lon="-3.79965">
        <ele>63</ele>
        <time>2022-04-24T21:33:26Z</time>
      </trkpt>
      <trkpt lat="48.70517" lon="-3.80103">
        <ele>64</ele>
        <time>2022-04-24T21:33:46Z</time>
      </trkpt>
      <trkpt lat="48.70526" lon="-3.80119">
        <ele>64</ele>
        <time>2022-04-24T21:33:48Z</time>
      </trkpt>
      <trkpt lat="48.70574" lon="-3.8017">
        <ele>63</ele>
        <time>2022-04-24T21:33:59Z</time>
      </trkpt>
      <trkpt lat="48.70604" lon="-3.80209">
        <ele>63</ele>
        <time>2022-04-24T21:34:06Z</time>
      </trkpt>
      <trkpt lat="48.70687" lon="-3.80342">
        <ele>63</ele>
        <time>2022-04-24T21:34:27Z</time>
      </trkpt>
      <trkpt lat="48.70699" lon="-3.80351">
        <ele>63</ele>
        <time>2022-04-24T21:34:29Z</time>
      </trkpt>
      <trkpt lat="48.70738" lon="-3.80355">
        <ele>61</ele>
        <time>2022-04-24T21:34:36Z</time>
      </trkpt>
      <trkpt lat="48.70751" lon="-3.80361">
        <ele>61</ele>
        <time>2022-04-24T21:34:39Z</time>
      </trkpt>
      <trkpt lat="48.70759" lon="-3.80371">
        <ele>61</ele>
        <time>2022-04-24T21:34:41Z</time>
      </trkpt>
      <trkpt lat="48.70766" lon="-3.80376">
        <ele>60</ele>
        <time>2022-04-24T21:34:42Z</time>
      </trkpt>
      <trkpt lat="48.7078" lon="-3.8038">
        <ele>59</ele>
        <time>2022-04-24T21:34:45Z</time>
      </trkpt>
      <trkpt lat="48.70792" lon="-3.8038">
        <ele>57</ele>
        <time>2022-04-24T21:34:47Z</time>
      </trkpt>
      <trkpt lat="48.708" lon="-3.80377">
        <ele>56</ele>
        <time>2022-04-24T21:34:48Z</time>
      </trkpt>
      <trkpt lat="48.70874" lon="-3.80315">
        <ele>47</ele>
        <time>2022-04-24T21:35:03Z</time>
      </trkpt>
      <trkpt lat="48.70963" lon="-3.8027">
        <ele>40</ele>
        <time>2022-04-24T21:35:20Z</time>
      </trkpt>
      <trkpt lat="48.70969" lon="-3.80269">
        <ele>39</ele>
        <time>2022-04-24T21:35:21Z</time>
      </trkpt>
      <trkpt lat="48.70988" lon="-3.80274">
        <ele>38</ele>
        <time>2022-04-24T21:35:24Z</time>
      </trkpt>
      <trkpt lat="48.71005" lon="-3.80291">
        <ele>37</ele>
        <time>2022-04-24T21:35:28Z</time>
      </trkpt>
      <trkpt lat="48.71019" lon="-3.80294">
        <ele>35</ele>
        <time>2022-04-24T21:35:31Z</time>
      </trkpt>
      <trkpt lat="48.71039" lon="-3.80294">
        <ele>32</ele>
        <time>2022-04-24T21:35:34Z</time>
      </trkpt>
      <trkpt lat="48.71046" lon="-3.80292">
        <ele>31</ele>
        <time>2022-04-24T21:35:35Z</time>
      </trkpt>
      <trkpt lat="48.71053" lon="-3.80283">
        <ele>30</ele>
        <time>2022-04-24T21:35:37Z</time>
      </trkpt>
      <trkpt lat="48.71059" lon="-3.8028">
        <ele>29</ele>
        <time>2022-04-24T21:35:38Z</time>
      </trkpt>
      <trkpt lat="48.71062" lon="-3.80281">
        <ele>29</ele>
        <time>2022-04-24T21:35:39Z</time>
      </trkpt>
      <trkpt lat="48.71065" lon="-3.80286">
        <ele>28</ele>
        <time>2022-04-24T21:35:40Z</time>
      </trkpt>
      <trkpt lat="48.71066" lon="-3.80297">
        <ele>28</ele>
        <time>2022-04-24T21:35:41Z</time>
      </trkpt>
      <trkpt lat="48.71064" lon="-3.80342">
        <ele>27</ele>
        <time>2022-04-24T21:35:46Z</time>
      </trkpt>
      <trkpt lat="48.7105" lon="-3.80429">
        <ele>23</ele>
        <time>2022-04-24T21:35:57Z</time>
      </trkpt>
      <trkpt lat="48.71047" lon="-3.80453">
        <ele>22</ele>
        <time>2022-04-24T21:35:59Z</time>
      </trkpt>
      <trkpt lat="48.71047" lon="-3.80474">
        <ele>21</ele>
        <time>2022-04-24T21:36:02Z</time>
      </trkpt>
      <trkpt lat="48.7105" lon="-3.80493">
        <ele>19</ele>
        <time>2022-04-24T21:36:04Z</time>
      </trkpt>
      <trkpt lat="48.71053" lon="-3.80504">
        <ele>18</ele>
        <time>2022-04-24T21:36:06Z</time>
      </trkpt>
      <trkpt lat="48.71057" lon="-3.80513">
        <ele>17</ele>
        <time>2022-04-24T21:36:07Z</time>
      </trkpt>
      <trkpt lat="48.71091" lon="-3.80561">
        <ele>8</ele>
        <time>2022-04-24T21:36:15Z</time>
      </trkpt>
      <trkpt lat="48.71106" lon="-3.80597">
        <ele>6</ele>
        <time>2022-04-24T21:36:20Z</time>
      </trkpt>
      <trkpt lat="48.71116" lon="-3.80636">
        <ele>6</ele>
        <time>2022-04-24T21:36:25Z</time>
      </trkpt>
      <trkpt lat="48.71129" lon="-3.80714">
        <ele>5</ele>
        <time>2022-04-24T21:36:35Z</time>
      </trkpt>
      <trkpt lat="48.71144" lon="-3.80783">
        <ele>4</ele>
        <time>2022-04-24T21:36:43Z</time>
      </trkpt>
      <trkpt lat="48.71158" lon="-3.80838">
        <ele>4</ele>
        <time>2022-04-24T21:36:50Z</time>
      </trkpt>
      <trkpt lat="48.71204" lon="-3.80991">
        <ele>3</ele>
        <time>2022-04-24T21:37:10Z</time>
      </trkpt>
      <trkpt lat="48.71282" lon="-3.81221">
        <ele>5</ele>
        <time>2022-04-24T21:37:40Z</time>
      </trkpt>
      <trkpt lat="48.713" lon="-3.81268">
        <ele>6</ele>
        <time>2022-04-24T21:37:46Z</time>
      </trkpt>
      <trkpt lat="48.71302" lon="-3.81279">
        <ele>7</ele>
        <time>2022-04-24T21:37:48Z</time>
      </trkpt>
      <trkpt lat="48.71301" lon="-3.81294">
        <ele>7</ele>
        <time>2022-04-24T21:37:50Z</time>
      </trkpt>
      <trkpt lat="48.71298" lon="-3.81301">
        <ele>7</ele>
        <time>2022-04-24T21:37:51Z</time>
      </trkpt>
      <trkpt lat="48.71288" lon="-3.81314">
        <ele>8</ele>
        <time>2022-04-24T21:37:53Z</time>
      </trkpt>
      <trkpt lat="48.71261" lon="-3.81355">
        <ele>9</ele>
        <time>2022-04-24T21:38:00Z</time>
      </trkpt>
      <trkpt lat="48.71254" lon="-3.81371">
        <ele>9</ele>
        <time>2022-04-24T21:38:02Z</time>
      </trkpt>
      <trkpt lat="48.71235" lon="-3.81447">
        <ele>9</ele>
        <time>2022-04-24T21:38:12Z</time>
      </trkpt>
      <trkpt lat="48.71207" lon="-3.81603">
        <ele>8</ele>
        <time>2022-04-24T21:38:30Z</time>
      </trkpt>
      <trkpt lat="48.71193" lon="-3.81639">
        <ele>7</ele>
        <time>2022-04-24T21:38:35Z</time>
      </trkpt>
      <trkpt lat="48.71179" lon="-3.8166">
        <ele>6</ele>
        <time>2022-04-24T21:38:39Z</time>
      </trkpt>
      <trkpt lat="48.71171" lon="-3.81668">
        <ele>5</ele>
        <time>2022-04-24T21:38:41Z</time>
      </trkpt>
      <trkpt lat="48.7116" lon="-3.81677">
        <ele>5</ele>
        <time>2022-04-24T21:38:43Z</time>
      </trkpt>
      <trkpt lat="48.71103" lon="-3.81705">
        <ele>8</ele>
        <time>2022-04-24T21:38:53Z</time>
      </trkpt>
      <trkpt lat="48.71083" lon="-3.81721">
        <ele>8</ele>
        <time>2022-04-24T21:38:58Z</time>
      </trkpt>
      <trkpt lat="48.71063" lon="-3.81747">
        <ele>9</ele>
        <time>2022-04-24T21:39:02Z</time>
      </trkpt>
      <trkpt lat="48.71046" lon="-3.81781">
        <ele>8</ele>
        <time>2022-04-24T21:39:07Z</time>
      </trkpt>
      <trkpt lat="48.71012" lon="-3.81856">
        <ele>6</ele>
        <time>2022-04-24T21:39:18Z</time>
      </trkpt>
      <trkpt lat="48.71003" lon="-3.81871">
        <ele>6</ele>
        <time>2022-04-24T21:39:20Z</time>
      </trkpt>
      <trkpt lat="48.70991" lon="-3.81881">
        <ele>6</ele>
        <time>2022-04-24T21:39:23Z</time>
      </trkpt>
      <trkpt lat="48.70934" lon="-3.81912">
        <ele>8</ele>
        <time>2022-04-24T21:39:33Z</time>
      </trkpt>
      <trkpt lat="48.70854" lon="-3.82001">
        <ele>11</ele>
        <time>2022-04-24T21:39:51Z</time>
      </trkpt>
      <trkpt lat="48.70845" lon="-3.82009">
        <ele>12</ele>
        <time>2022-04-24T21:39:53Z</time>
      </trkpt>
      <trkpt lat="48.70824" lon="-3.82019">
        <ele>13</ele>
        <time>2022-04-24T21:39:57Z</time>
      </trkpt>
      <trkpt lat="48.70813" lon="-3.82021">
        <ele>13</ele>
        <time>2022-04-24T21:39:59Z</time>
      </trkpt>
      <trkpt lat="48.70791" lon="-3.8202">
        <ele>13</ele>
        <time>2022-04-24T21:40:03Z</time>
      </trkpt>
      <trkpt lat="48.70702" lon="-3.81995">
        <ele>19</ele>
        <time>2022-04-24T21:40:19Z</time>
      </trkpt>
      <trkpt lat="48.70426" lon="-3.81984">
        <ele>19</ele>
        <time>2022-04-24T21:41:08Z</time>
      </trkpt>
      <trkpt lat="48.70352" lon="-3.81969">
        <ele>21</ele>
        <time>2022-04-24T21:41:21Z</time>
      </trkpt>
      <trkpt lat="48.7035" lon="-3.81978">
        <ele>20</ele>
        <time>2022-04-24T21:41:22Z</time>
      </trkpt>
      <trkpt lat="48.70345" lon="-3.81983">
        <ele>19</ele>
        <time>2022-04-24T21:41:23Z</time>
      </trkpt>
      <trkpt lat="48.70339" lon="-3.81983">
        <ele>19</ele>
        <time>2022-04-24T21:41:25Z</time>
      </trkpt>
      <trkpt lat="48.70328" lon="-3.81978">
        <ele>20</ele>
        <time>2022-04-24T21:41:27Z</time>
      </trkpt>
      <trkpt lat="48.70319" lon="-3.81986">
        <ele>18</ele>
        <time>2022-04-24T21:41:28Z</time>
      </trkpt>
      <trkpt lat="48.70304" lon="-3.81986">
        <ele>18</ele>
        <time>2022-04-24T21:41:31Z</time>
      </trkpt>
      <trkpt lat="48.70291" lon="-3.81981">
        <ele>19</ele>
        <time>2022-04-24T21:41:34Z</time>
      </trkpt>
      <trkpt lat="48.70274" lon="-3.81971">
        <ele>19</ele>
        <time>2022-04-24T21:41:37Z</time>
      </trkpt>
      <trkpt lat="48.70172" lon="-3.81891">
        <ele>18</ele>
        <time>2022-04-24T21:41:57Z</time>
      </trkpt>
      <trkpt lat="48.70147" lon="-3.81881">
        <ele>17</ele>
        <time>2022-04-24T21:42:02Z</time>
      </trkpt>
      <trkpt lat="48.70138" lon="-3.81881">
        <ele>16</ele>
        <time>2022-04-24T21:42:03Z</time>
      </trkpt>
      <trkpt lat="48.70109" lon="-3.81888">
        <ele>13</ele>
        <time>2022-04-24T21:42:09Z</time>
      </trkpt>
      <trkpt lat="48.7009" lon="-3.819">
        <ele>11</ele>
        <time>2022-04-24T21:42:12Z</time>
      </trkpt>
      <trkpt lat="48.70073" lon="-3.81921">
        <ele>9</ele>
        <time>2022-04-24T21:42:16Z</time>
      </trkpt>
      <trkpt lat="48.70063" lon="-3.81942">
        <ele>8</ele>
        <time>2022-04-24T21:42:19Z</time>
      </trkpt>
      <trkpt lat="48.70057" lon="-3.8196">
        <ele>8</ele>
        <time>2022-04-24T21:42:22Z</time>
      </trkpt>
      <trkpt lat="48.70059" lon="-3.81973">
        <ele>8</ele>
        <time>2022-04-24T21:42:23Z</time>
      </trkpt>
      <trkpt lat="48.70055" lon="-3.82008">
        <ele>8</ele>
        <time>2022-04-24T21:42:27Z</time>
      </trkpt>
      <trkpt lat="48.70056" lon="-3.82041">
        <ele>8</ele>
        <time>2022-04-24T21:42:31Z</time>
      </trkpt>
      <trkpt lat="48.70065" lon="-3.8208">
        <ele>7</ele>
        <time>2022-04-24T21:42:36Z</time>
      </trkpt>
      <trkpt lat="48.70082" lon="-3.82127">
        <ele>7</ele>
        <time>2022-04-24T21:42:42Z</time>
      </trkpt>
      <trkpt lat="48.70102" lon="-3.82168">
        <ele>7</ele>
        <time>2022-04-24T21:42:48Z</time>
      </trkpt>
      <trkpt lat="48.70126" lon="-3.8221">
        <ele>7</ele>
        <time>2022-04-24T21:42:55Z</time>
      </trkpt>
      <trkpt lat="48.70156" lon="-3.8225">
        <ele>6</ele>
        <time>2022-04-24T21:43:02Z</time>
      </trkpt>
      <trkpt lat="48.70194" lon="-3.82317">
        <ele>4</ele>
        <time>2022-04-24T21:43:12Z</time>
      </trkpt>
      <trkpt lat="48.70396" lon="-3.82848">
        <ele>7</ele>
        <time>2022-04-24T21:44:24Z</time>
      </trkpt>
      <trkpt lat="48.70415" lon="-3.82876">
        <ele>9</ele>
        <time>2022-04-24T21:44:29Z</time>
      </trkpt>
      <trkpt lat="48.70432" lon="-3.82895">
        <ele>11</ele>
        <time>2022-04-24T21:44:33Z</time>
      </trkpt>
      <trkpt lat="48.70454" lon="-3.82908">
        <ele>13</ele>
        <time>2022-04-24T21:44:37Z</time>
      </trkpt>
      <trkpt lat="48.70478" lon="-3.82916">
        <ele>15</ele>
        <time>2022-04-24T21:44:41Z</time>
      </trkpt>
      <trkpt lat="48.70507" lon="-3.8292">
        <ele>17</ele>
        <time>2022-04-24T21:44:47Z</time>
      </trkpt>
      <trkpt lat="48.70525" lon="-3.82933">
        <ele>19</ele>
        <time>2022-04-24T21:44:50Z</time>
      </trkpt>
      <trkpt lat="48.7054" lon="-3.82949">
        <ele>20</ele>
        <time>2022-04-24T21:44:53Z</time>
      </trkpt>
      <trkpt lat="48.70564" lon="-3.83">
        <ele>22</ele>
        <time>2022-04-24T21:45:01Z</time>
      </trkpt>
      <trkpt lat="48.70569" lon="-3.83015">
        <ele>23</ele>
        <time>2022-04-24T21:45:03Z</time>
      </trkpt>
      <trkpt lat="48.70573" lon="-3.83037">
        <ele>23</ele>
        <time>2022-04-24T21:45:05Z</time>
      </trkpt>
      <trkpt lat="48.70571" lon="-3.83077">
        <ele>25</ele>
        <time>2022-04-24T21:45:10Z</time>
      </trkpt>
      <trkpt lat="48.70544" lon="-3.83196">
        <ele>29</ele>
        <time>2022-04-24T21:45:25Z</time>
      </trkpt>
      <trkpt lat="48.7054" lon="-3.83211">
        <ele>29</ele>
        <time>2022-04-24T21:45:27Z</time>
      </trkpt>
      <trkpt lat="48.70533" lon="-3.83222">
        <ele>29</ele>
        <time>2022-04-24T21:45:29Z</time>
      </trkpt>
      <trkpt lat="48.70518" lon="-3.83234">
        <ele>30</ele>
        <time>2022-04-24T21:45:32Z</time>
      </trkpt>
      <trkpt lat="48.70457" lon="-3.83268">
        <ele>33</ele>
        <time>2022-04-24T21:45:43Z</time>
      </trkpt>
      <trkpt lat="48.70411" lon="-3.83296">
        <ele>35</ele>
        <time>2022-04-24T21:45:52Z</time>
      </trkpt>
      <trkpt lat="48.7036" lon="-3.83348">
        <ele>35</ele>
        <time>2022-04-24T21:46:03Z</time>
      </trkpt>
      <trkpt lat="48.70335" lon="-3.83368">
        <ele>36</ele>
        <time>2022-04-24T21:46:08Z</time>
      </trkpt>
      <trkpt lat="48.7032" lon="-3.83377">
        <ele>36</ele>
        <time>2022-04-24T21:46:11Z</time>
      </trkpt>
      <trkpt lat="48.70305" lon="-3.83423">
        <ele>36</ele>
        <time>2022-04-24T21:46:17Z</time>
      </trkpt>
      <trkpt lat="48.70273" lon="-3.83596">
        <ele>44</ele>
        <time>2022-04-24T21:46:38Z</time>
      </trkpt>
      <trkpt lat="48.70265" lon="-3.83629">
        <ele>46</ele>
        <time>2022-04-24T21:46:42Z</time>
      </trkpt>
      <trkpt lat="48.70259" lon="-3.83647">
        <ele>46</ele>
        <time>2022-04-24T21:46:44Z</time>
      </trkpt>
      <trkpt lat="48.70249" lon="-3.83667">
        <ele>47</ele>
        <time>2022-04-24T21:46:47Z</time>
      </trkpt>
      <trkpt lat="48.70229" lon="-3.83698">
        <ele>49</ele>
        <time>2022-04-24T21:46:52Z</time>
      </trkpt>
      <trkpt lat="48.70209" lon="-3.83717">
        <ele>50</ele>
        <time>2022-04-24T21:46:57Z</time>
      </trkpt>
      <trkpt lat="48.70177" lon="-3.8374">
        <ele>51</ele>
        <time>2022-04-24T21:47:03Z</time>
      </trkpt>
      <trkpt lat="48.69962" lon="-3.83823">
        <ele>52</ele>
        <time>2022-04-24T21:47:42Z</time>
      </trkpt>
      <trkpt lat="48.69931" lon="-3.83831">
        <ele>50</ele>
        <time>2022-04-24T21:47:48Z</time>
      </trkpt>
      <trkpt lat="48.6992" lon="-3.83833">
        <ele>49</ele>
        <time>2022-04-24T21:47:50Z</time>
      </trkpt>
      <trkpt lat="48.69883" lon="-3.83827">
        <ele>46</ele>
        <time>2022-04-24T21:47:57Z</time>
      </trkpt>
      <trkpt lat="48.69852" lon="-3.8381">
        <ele>43</ele>
        <time>2022-04-24T21:48:02Z</time>
      </trkpt>
      <trkpt lat="48.69701" lon="-3.83684">
        <ele>41</ele>
        <time>2022-04-24T21:48:33Z</time>
      </trkpt>
      <trkpt lat="48.69664" lon="-3.83656">
        <ele>42</ele>
        <time>2022-04-24T21:48:41Z</time>
      </trkpt>
      <trkpt lat="48.6962" lon="-3.83632">
        <ele>45</ele>
        <time>2022-04-24T21:48:49Z</time>
      </trkpt>
      <trkpt lat="48.69583" lon="-3.83616">
        <ele>46</ele>
        <time>2022-04-24T21:48:56Z</time>
      </trkpt>
      <trkpt lat="48.69542" lon="-3.83601">
        <ele>50</ele>
        <time>2022-04-24T21:49:03Z</time>
      </trkpt>
      <trkpt lat="48.69445" lon="-3.8358">
        <ele>53</ele>
        <time>2022-04-24T21:49:21Z</time>
      </trkpt>
      <trkpt lat="48.69146" lon="-3.83524">
        <ele>48</ele>
        <time>2022-04-24T21:50:14Z</time>
      </trkpt>
      <trkpt lat="48.69123" lon="-3.8352">
        <ele>48</ele>
        <time>2022-04-24T21:50:18Z</time>
      </trkpt>
      <trkpt lat="48.69082" lon="-3.83519">
        <ele>46</ele>
        <time>2022-04-24T21:50:26Z</time>
      </trkpt>
      <trkpt lat="48.69061" lon="-3.83522">
        <ele>47</ele>
        <time>2022-04-24T21:50:29Z</time>
      </trkpt>
      <trkpt lat="48.68973" lon="-3.83554">
        <ele>48</ele>
        <time>2022-04-24T21:50:46Z</time>
      </trkpt>
      <trkpt lat="48.68933" lon="-3.83575">
        <ele>48</ele>
        <time>2022-04-24T21:50:53Z</time>
      </trkpt>
      <trkpt lat="48.68908" lon="-3.83595">
        <ele>48</ele>
        <time>2022-04-24T21:50:58Z</time>
      </trkpt>
      <trkpt lat="48.68894" lon="-3.83604">
        <ele>48</ele>
        <time>2022-04-24T21:51:01Z</time>
      </trkpt>
      <trkpt lat="48.6888" lon="-3.83607">
        <ele>48</ele>
        <time>2022-04-24T21:51:03Z</time>
      </trkpt>
      <trkpt lat="48.68834" lon="-3.83604">
        <ele>50</ele>
        <time>2022-04-24T21:51:11Z</time>
      </trkpt>
      <trkpt lat="48.68807" lon="-3.83593">
        <ele>51</ele>
        <time>2022-04-24T21:51:16Z</time>
      </trkpt>
      <trkpt lat="48.68777" lon="-3.83567">
        <ele>51</ele>
        <time>2022-04-24T21:51:23Z</time>
      </trkpt>
      <trkpt lat="48.68742" lon="-3.8355">
        <ele>52</ele>
        <time>2022-04-24T21:51:29Z</time>
      </trkpt>
      <trkpt lat="48.68715" lon="-3.83546">
        <ele>52</ele>
        <time>2022-04-24T21:51:34Z</time>
      </trkpt>
      <trkpt lat="48.68671" lon="-3.8355">
        <ele>54</ele>
        <time>2022-04-24T21:51:42Z</time>
      </trkpt>
      <trkpt lat="48.68518" lon="-3.83602">
        <ele>54</ele>
        <time>2022-04-24T21:52:10Z</time>
      </trkpt>
      <trkpt lat="48.68487" lon="-3.83631">
        <ele>54</ele>
        <time>2022-04-24T21:52:16Z</time>
      </trkpt>
      <trkpt lat="48.68467" lon="-3.83662">
        <ele>54</ele>
        <time>2022-04-24T21:52:21Z</time>
      </trkpt>
      <trkpt lat="48.68453" lon="-3.8372">
        <ele>54</ele>
        <time>2022-04-24T21:52:29Z</time>
      </trkpt>
      <trkpt lat="48.68449" lon="-3.83773">
        <ele>53</ele>
        <time>2022-04-24T21:52:35Z</time>
      </trkpt>
      <trkpt lat="48.68441" lon="-3.8383">
        <ele>54</ele>
        <time>2022-04-24T21:52:42Z</time>
      </trkpt>
      <trkpt lat="48.6843" lon="-3.83893">
        <ele>54</ele>
        <time>2022-04-24T21:52:49Z</time>
      </trkpt>
      <trkpt lat="48.68405" lon="-3.83933">
        <ele>54</ele>
        <time>2022-04-24T21:52:56Z</time>
      </trkpt>
      <trkpt lat="48.68379" lon="-3.8394">
        <ele>55</ele>
        <time>2022-04-24T21:53:00Z</time>
      </trkpt>
      <trkpt lat="48.68341" lon="-3.83931">
        <ele>56</ele>
        <time>2022-04-24T21:53:07Z</time>
      </trkpt>
      <trkpt lat="48.68225" lon="-3.83897">
        <ele>56</ele>
        <time>2022-04-24T21:53:28Z</time>
      </trkpt>
      <trkpt lat="48.68166" lon="-3.83876">
        <ele>56</ele>
        <time>2022-04-24T21:53:39Z</time>
      </trkpt>
      <trkpt lat="48.6814" lon="-3.83857">
        <ele>56</ele>
        <time>2022-04-24T21:53:44Z</time>
      </trkpt>
      <trkpt lat="48.68113" lon="-3.83843">
        <ele>56</ele>
        <time>2022-04-24T21:53:49Z</time>
      </trkpt>
      <trkpt lat="48.68088" lon="-3.83876">
        <ele>56</ele>
        <time>2022-04-24T21:53:55Z</time>
      </trkpt>
      <trkpt lat="48.68063" lon="-3.83888">
        <ele>54</ele>
        <time>2022-04-24T21:54:00Z</time>
      </trkpt>
      <trkpt lat="48.67986" lon="-3.83898">
        <ele>50</ele>
        <time>2022-04-24T21:54:14Z</time>
      </trkpt>
      <trkpt lat="48.67906" lon="-3.83899">
        <ele>47</ele>
        <time>2022-04-24T21:54:28Z</time>
      </trkpt>
      <trkpt lat="48.67863" lon="-3.83886">
        <ele>44</ele>
        <time>2022-04-24T21:54:36Z</time>
      </trkpt>
      <trkpt lat="48.67821" lon="-3.83879">
        <ele>43</ele>
        <time>2022-04-24T21:54:43Z</time>
      </trkpt>
      <trkpt lat="48.67792" lon="-3.83886">
        <ele>44</ele>
        <time>2022-04-24T21:54:48Z</time>
      </trkpt>
      <trkpt lat="48.67788" lon="-3.83889">
        <ele>44</ele>
        <time>2022-04-24T21:54:49Z</time>
      </trkpt>
      <trkpt lat="48.67765" lon="-3.83917">
        <ele>45</ele>
        <time>2022-04-24T21:54:54Z</time>
      </trkpt>
      <trkpt lat="48.6775" lon="-3.83968">
        <ele>46</ele>
        <time>2022-04-24T21:55:01Z</time>
      </trkpt>
      <trkpt lat="48.67743" lon="-3.84027">
        <ele>45</ele>
        <time>2022-04-24T21:55:08Z</time>
      </trkpt>
      <trkpt lat="48.67749" lon="-3.84087">
        <ele>44</ele>
        <time>2022-04-24T21:55:15Z</time>
      </trkpt>
      <trkpt lat="48.67752" lon="-3.84141">
        <ele>44</ele>
        <time>2022-04-24T21:55:22Z</time>
      </trkpt>
      <trkpt lat="48.67746" lon="-3.84246">
        <ele>42</ele>
        <time>2022-04-24T21:55:34Z</time>
      </trkpt>
      <trkpt lat="48.67745" lon="-3.84425">
        <ele>40</ele>
        <time>2022-04-24T21:55:55Z</time>
      </trkpt>
      <trkpt lat="48.67741" lon="-3.84448">
        <ele>40</ele>
        <time>2022-04-24T21:55:58Z</time>
      </trkpt>
      <trkpt lat="48.67818" lon="-3.84495">
        <ele>38</ele>
        <time>2022-04-24T21:56:13Z</time>
      </trkpt>
      <trkpt lat="48.67832" lon="-3.8451">
        <ele>37</ele>
        <time>2022-04-24T21:56:16Z</time>
      </trkpt>
      <trkpt lat="48.67838" lon="-3.84527">
        <ele>36</ele>
        <time>2022-04-24T21:56:18Z</time>
      </trkpt>
      <trkpt lat="48.67842" lon="-3.84543">
        <ele>35</ele>
        <time>2022-04-24T21:56:20Z</time>
      </trkpt>
      <trkpt lat="48.67834" lon="-3.8463">
        <ele>31</ele>
        <time>2022-04-24T21:56:30Z</time>
      </trkpt>
      <trkpt lat="48.67827" lon="-3.84668">
        <ele>28</ele>
        <time>2022-04-24T21:56:35Z</time>
      </trkpt>
      <trkpt lat="48.67801" lon="-3.84668">
        <ele>30</ele>
        <time>2022-04-24T21:56:39Z</time>
      </trkpt>
      <trkpt lat="48.6767" lon="-3.84661">
        <ele>33</ele>
        <time>2022-04-24T21:57:03Z</time>
      </trkpt>
      <trkpt lat="48.67584" lon="-3.84653">
        <ele>26</ele>
        <time>2022-04-24T21:57:18Z</time>
      </trkpt>
      <trkpt lat="48.67518" lon="-3.84641">
        <ele>24</ele>
        <time>2022-04-24T21:57:30Z</time>
      </trkpt>
      <trkpt lat="48.67496" lon="-3.84636">
        <ele>24</ele>
        <time>2022-04-24T21:57:34Z</time>
      </trkpt>
      <trkpt lat="48.67394" lon="-3.84606">
        <ele>22</ele>
        <time>2022-04-24T21:57:52Z</time>
      </trkpt>
      <trkpt lat="48.67277" lon="-3.84567">
        <ele>20</ele>
        <time>2022-04-24T21:58:14Z</time>
      </trkpt>
      <trkpt lat="48.67206" lon="-3.84537">
        <ele>21</ele>
        <time>2022-04-24T21:58:27Z</time>
      </trkpt>
      <trkpt lat="48.67182" lon="-3.8453">
        <ele>20</ele>
        <time>2022-04-24T21:58:31Z</time>
      </trkpt>
      <trkpt lat="48.6716" lon="-3.84528">
        <ele>19</ele>
        <time>2022-04-24T21:58:35Z</time>
      </trkpt>
      <trkpt lat="48.67122" lon="-3.84534">
        <ele>18</ele>
        <time>2022-04-24T21:58:42Z</time>
      </trkpt>
      <trkpt lat="48.6709" lon="-3.84552">
        <ele>15</ele>
        <time>2022-04-24T21:58:48Z</time>
      </trkpt>
      <trkpt lat="48.67074" lon="-3.84565">
        <ele>15</ele>
        <time>2022-04-24T21:58:51Z</time>
      </trkpt>
      <trkpt lat="48.6705" lon="-3.84589">
        <ele>16</ele>
        <time>2022-04-24T21:58:56Z</time>
      </trkpt>
      <trkpt lat="48.66994" lon="-3.84664">
        <ele>16</ele>
        <time>2022-04-24T21:59:10Z</time>
      </trkpt>
      <trkpt lat="48.66974" lon="-3.84685">
        <ele>17</ele>
        <time>2022-04-24T21:59:14Z</time>
      </trkpt>
      <trkpt lat="48.66955" lon="-3.84699">
        <ele>17</ele>
        <time>2022-04-24T21:59:18Z</time>
      </trkpt>
      <trkpt lat="48.66937" lon="-3.8471">
        <ele>17</ele>
        <time>2022-04-24T21:59:21Z</time>
      </trkpt>
      <trkpt lat="48.66925" lon="-3.84714">
        <ele>18</ele>
        <time>2022-04-24T21:59:23Z</time>
      </trkpt>
      <trkpt lat="48.66909" lon="-3.84716">
        <ele>18</ele>
        <time>2022-04-24T21:59:26Z</time>
      </trkpt>
      <trkpt lat="48.66877" lon="-3.84711">
        <ele>17</ele>
        <time>2022-04-24T21:59:32Z</time>
      </trkpt>
      <trkpt lat="48.66854" lon="-3.84702">
        <ele>18</ele>
        <time>2022-04-24T21:59:36Z</time>
      </trkpt>
      <trkpt lat="48.66743" lon="-3.84642">
        <ele>21</ele>
        <time>2022-04-24T21:59:57Z</time>
      </trkpt>
      <trkpt lat="48.6668" lon="-3.84613">
        <ele>24</ele>
        <time>2022-04-24T22:00:09Z</time>
      </trkpt>
      <trkpt lat="48.66609" lon="-3.84601">
        <ele>23</ele>
        <time>2022-04-24T22:00:22Z</time>
      </trkpt>
      <trkpt lat="48.66565" lon="-3.84595">
        <ele>21</ele>
        <time>2022-04-24T22:00:29Z</time>
      </trkpt>
      <trkpt lat="48.66217" lon="-3.84533">
        <ele>8</ele>
        <time>2022-04-24T22:01:32Z</time>
      </trkpt>
      <trkpt lat="48.66152" lon="-3.84525">
        <ele>6</ele>
        <time>2022-04-24T22:01:43Z</time>
      </trkpt>
      <trkpt lat="48.6612" lon="-3.84525">
        <ele>6</ele>
        <time>2022-04-24T22:01:49Z</time>
      </trkpt>
      <trkpt lat="48.66093" lon="-3.84532">
        <ele>7</ele>
        <time>2022-04-24T22:01:54Z</time>
      </trkpt>
      <trkpt lat="48.66069" lon="-3.84542">
        <ele>7</ele>
        <time>2022-04-24T22:01:58Z</time>
      </trkpt>
      <trkpt lat="48.66055" lon="-3.84552">
        <ele>7</ele>
        <time>2022-04-24T22:02:01Z</time>
      </trkpt>
      <trkpt lat="48.66033" lon="-3.84576">
        <ele>7</ele>
        <time>2022-04-24T22:02:06Z</time>
      </trkpt>
      <trkpt lat="48.66022" lon="-3.84593">
        <ele>7</ele>
        <time>2022-04-24T22:02:09Z</time>
      </trkpt>
      <trkpt lat="48.66009" lon="-3.84616">
        <ele>7</ele>
        <time>2022-04-24T22:02:12Z</time>
      </trkpt>
      <trkpt lat="48.65995" lon="-3.84647">
        <ele>7</ele>
        <time>2022-04-24T22:02:17Z</time>
      </trkpt>
      <trkpt lat="48.65987" lon="-3.84677">
        <ele>7</ele>
        <time>2022-04-24T22:02:21Z</time>
      </trkpt>
      <trkpt lat="48.65979" lon="-3.8473">
        <ele>7</ele>
        <time>2022-04-24T22:02:27Z</time>
      </trkpt>
      <trkpt lat="48.65971" lon="-3.8493">
        <ele>7</ele>
        <time>2022-04-24T22:02:50Z</time>
      </trkpt>
      <trkpt lat="48.65966" lon="-3.84964">
        <ele>8</ele>
        <time>2022-04-24T22:02:55Z</time>
      </trkpt>
      <trkpt lat="48.65954" lon="-3.84999">
        <ele>10</ele>
        <time>2022-04-24T22:02:59Z</time>
      </trkpt>
      <trkpt lat="48.65939" lon="-3.85035">
        <ele>11</ele>
        <time>2022-04-24T22:03:04Z</time>
      </trkpt>
      <trkpt lat="48.65911" lon="-3.85079">
        <ele>12</ele>
        <time>2022-04-24T22:03:11Z</time>
      </trkpt>
      <trkpt lat="48.65892" lon="-3.85098">
        <ele>14</ele>
        <time>2022-04-24T22:03:15Z</time>
      </trkpt>
      <trkpt lat="48.65865" lon="-3.85117">
        <ele>17</ele>
        <time>2022-04-24T22:03:21Z</time>
      </trkpt>
      <trkpt lat="48.65844" lon="-3.85125">
        <ele>19</ele>
        <time>2022-04-24T22:03:25Z</time>
      </trkpt>
      <trkpt lat="48.65821" lon="-3.85131">
        <ele>22</ele>
        <time>2022-04-24T22:03:29Z</time>
      </trkpt>
      <trkpt lat="48.65792" lon="-3.85132">
        <ele>25</ele>
        <time>2022-04-24T22:03:34Z</time>
      </trkpt>
      <trkpt lat="48.6578" lon="-3.8513">
        <ele>27</ele>
        <time>2022-04-24T22:03:36Z</time>
      </trkpt>
      <trkpt lat="48.65711" lon="-3.85091">
        <ele>32</ele>
        <time>2022-04-24T22:03:49Z</time>
      </trkpt>
      <trkpt lat="48.65682" lon="-3.85077">
        <ele>35</ele>
        <time>2022-04-24T22:03:55Z</time>
      </trkpt>
      <trkpt lat="48.65616" lon="-3.85052">
        <ele>41</ele>
        <time>2022-04-24T22:04:07Z</time>
      </trkpt>
      <trkpt lat="48.65607" lon="-3.85046">
        <ele>42</ele>
        <time>2022-04-24T22:04:08Z</time>
      </trkpt>
      <trkpt lat="48.65579" lon="-3.85018">
        <ele>43</ele>
        <time>2022-04-24T22:04:14Z</time>
      </trkpt>
      <trkpt lat="48.65557" lon="-3.84983">
        <ele>44</ele>
        <time>2022-04-24T22:04:20Z</time>
      </trkpt>
      <trkpt lat="48.65507" lon="-3.84885">
        <ele>46</ele>
        <time>2022-04-24T22:04:35Z</time>
      </trkpt>
      <trkpt lat="48.65495" lon="-3.84867">
        <ele>47</ele>
        <time>2022-04-24T22:04:38Z</time>
      </trkpt>
      <trkpt lat="48.65468" lon="-3.84841">
        <ele>48</ele>
        <time>2022-04-24T22:04:43Z</time>
      </trkpt>
      <trkpt lat="48.65365" lon="-3.84756">
        <ele>52</ele>
        <time>2022-04-24T22:05:04Z</time>
      </trkpt>
      <trkpt lat="48.65118" lon="-3.84519">
        <ele>58</ele>
        <time>2022-04-24T22:05:56Z</time>
      </trkpt>
      <trkpt lat="48.65084" lon="-3.84484">
        <ele>58</ele>
        <time>2022-04-24T22:06:04Z</time>
      </trkpt>
      <trkpt lat="48.65047" lon="-3.84436">
        <ele>58</ele>
        <time>2022-04-24T22:06:12Z</time>
      </trkpt>
      <trkpt lat="48.65028" lon="-3.84404">
        <ele>58</ele>
        <time>2022-04-24T22:06:17Z</time>
      </trkpt>
      <trkpt lat="48.6502" lon="-3.84388">
        <ele>59</ele>
        <time>2022-04-24T22:06:20Z</time>
      </trkpt>
      <trkpt lat="48.64997" lon="-3.84329">
        <ele>60</ele>
        <time>2022-04-24T22:06:28Z</time>
      </trkpt>
      <trkpt lat="48.64945" lon="-3.84189">
        <ele>63</ele>
        <time>2022-04-24T22:06:47Z</time>
      </trkpt>
      <trkpt lat="48.64925" lon="-3.84142">
        <ele>63</ele>
        <time>2022-04-24T22:06:53Z</time>
      </trkpt>
      <trkpt lat="48.64881" lon="-3.84054">
        <ele>63</ele>
        <time>2022-04-24T22:07:06Z</time>
      </trkpt>
      <trkpt lat="48.64825" lon="-3.83947">
        <ele>62</ele>
        <time>2022-04-24T22:07:22Z</time>
      </trkpt>
      <trkpt lat="48.64815" lon="-3.83921">
        <ele>62</ele>
        <time>2022-04-24T22:07:26Z</time>
      </trkpt>
      <trkpt lat="48.64794" lon="-3.83857">
        <ele>61</ele>
        <time>2022-04-24T22:07:34Z</time>
      </trkpt>
      <trkpt lat="48.6478" lon="-3.83801">
        <ele>61</ele>
        <time>2022-04-24T22:07:41Z</time>
      </trkpt>
      <trkpt lat="48.64771" lon="-3.83754">
        <ele>60</ele>
        <time>2022-04-24T22:07:47Z</time>
      </trkpt>
      <trkpt lat="48.64735" lon="-3.83528">
        <ele>63</ele>
        <time>2022-04-24T22:08:14Z</time>
      </trkpt>
      <trkpt lat="48.64726" lon="-3.83492">
        <ele>63</ele>
        <time>2022-04-24T22:08:19Z</time>
      </trkpt>
      <trkpt lat="48.64713" lon="-3.83451">
        <ele>64</ele>
        <time>2022-04-24T22:08:24Z</time>
      </trkpt>
      <trkpt lat="48.64692" lon="-3.83402">
        <ele>65</ele>
        <time>2022-04-24T22:08:31Z</time>
      </trkpt>
      <trkpt lat="48.64643" lon="-3.83304">
        <ele>67</ele>
        <time>2022-04-24T22:08:45Z</time>
      </trkpt>
      <trkpt lat="48.6462" lon="-3.8326">
        <ele>69</ele>
        <time>2022-04-24T22:08:52Z</time>
      </trkpt>
      <trkpt lat="48.64595" lon="-3.83218">
        <ele>70</ele>
        <time>2022-04-24T22:08:59Z</time>
      </trkpt>
      <trkpt lat="48.64419" lon="-3.82969">
        <ele>76</ele>
        <time>2022-04-24T22:09:41Z</time>
      </trkpt>
      <trkpt lat="48.64365" lon="-3.82888">
        <ele>76</ele>
        <time>2022-04-24T22:09:55Z</time>
      </trkpt>
      <trkpt lat="48.64337" lon="-3.82843">
        <ele>78</ele>
        <time>2022-04-24T22:10:02Z</time>
      </trkpt>
      <trkpt lat="48.64219" lon="-3.82612">
        <ele>83</ele>
        <time>2022-04-24T22:10:37Z</time>
      </trkpt>
      <trkpt lat="48.64216" lon="-3.82614">
        <ele>83</ele>
        <time>2022-04-24T22:10:37Z</time>
      </trkpt>
      <trkpt lat="48.6421" lon="-3.82615">
        <ele>83</ele>
        <time>2022-04-24T22:10:38Z</time>
      </trkpt>
      <trkpt lat="48.64205" lon="-3.8261">
        <ele>83</ele>
        <time>2022-04-24T22:10:39Z</time>
      </trkpt>
      <trkpt lat="48.64203" lon="-3.82601">
        <ele>83</ele>
        <time>2022-04-24T22:10:40Z</time>
      </trkpt>
      <trkpt lat="48.64205" lon="-3.82593">
        <ele>83</ele>
        <time>2022-04-24T22:10:41Z</time>
      </trkpt>
      <trkpt lat="48.64207" lon="-3.82589">
        <ele>83</ele>
        <time>2022-04-24T22:10:42Z</time>
      </trkpt>
      <trkpt lat="48.64094" lon="-3.82365">
        <ele>85</ele>
        <time>2022-04-24T22:11:15Z</time>
      </trkpt>
      <trkpt lat="48.64057" lon="-3.82315">
        <ele>87</ele>
        <time>2022-04-24T22:11:24Z</time>
      </trkpt>
      <trkpt lat="48.64084" lon="-3.82325">
        <ele>86</ele>
        <time>2022-04-24T22:11:29Z</time>
      </trkpt>
      <trkpt lat="48.64141" lon="-3.82358">
        <ele>85</ele>
        <time>2022-04-24T22:11:40Z</time>
      </trkpt>
      <trkpt lat="48.64146" lon="-3.82315">
        <ele>85</ele>
        <time>2022-04-24T22:11:45Z</time>
      </trkpt>
      <trkpt lat="48.64131" lon="-3.82309">
        <ele>86</ele>
        <time>2022-04-24T22:11:48Z</time>
      </trkpt>
      <trkpt lat="48.64091" lon="-3.82287">
        <ele>86</ele>
        <time>2022-04-24T22:11:55Z</time>
      </trkpt>
      <trkpt lat="48.64097" lon="-3.82234">
        <ele>87</ele>
        <time>2022-04-24T22:12:02Z</time>
      </trkpt>
      <trkpt lat="48.64099" lon="-3.82203">
        <ele>88</ele>
        <time>2022-04-24T22:12:05Z</time>
      </trkpt>
      <trkpt lat="48.64097" lon="-3.822">
        <ele>88</ele>
        <time>2022-04-24T22:12:06Z</time>
      </trkpt>
      <trkpt lat="48.64093" lon="-3.82197">
        <ele>88</ele>
        <time>2022-04-24T22:12:07Z</time>
      </trkpt>
      <trkpt lat="48.64008" lon="-3.82184">
        <ele>91</ele>
        <time>2022-04-24T22:12:22Z</time>
      </trkpt>
      <trkpt lat="48.63987" lon="-3.82224">
        <ele>90</ele>
        <time>2022-04-24T22:12:28Z</time>
      </trkpt>
      <trkpt lat="48.63955" lon="-3.82184">
        <ele>90</ele>
        <time>2022-04-24T22:12:35Z</time>
      </trkpt>
      <trkpt lat="48.63938" lon="-3.82166">
        <ele>90</ele>
        <time>2022-04-24T22:12:39Z</time>
      </trkpt>
      <trkpt lat="48.63926" lon="-3.82158">
        <ele>90</ele>
        <time>2022-04-24T22:12:41Z</time>
      </trkpt>
      <trkpt lat="48.63913" lon="-3.82152">
        <ele>90</ele>
        <time>2022-04-24T22:12:44Z</time>
      </trkpt>
      <trkpt lat="48.63833" lon="-3.82163">
        <ele>86</ele>
        <time>2022-04-24T22:12:58Z</time>
      </trkpt>
      <trkpt lat="48.63833" lon="-3.82169">
        <ele>86</ele>
        <time>2022-04-24T22:12:59Z</time>
      </trkpt>
      <trkpt lat="48.63831" lon="-3.82175">
        <ele>86</ele>
        <time>2022-04-24T22:12:59Z</time>
      </trkpt>
      <trkpt lat="48.63827" lon="-3.82179">
        <ele>86</ele>
        <time>2022-04-24T22:13:00Z</time>
      </trkpt>
      <trkpt lat="48.63822" lon="-3.82179">
        <ele>85</ele>
        <time>2022-04-24T22:13:01Z</time>
      </trkpt>
      <trkpt lat="48.63818" lon="-3.82175">
        <ele>85</ele>
        <time>2022-04-24T22:13:02Z</time>
      </trkpt>
      <trkpt lat="48.63815" lon="-3.82168">
        <ele>85</ele>
        <time>2022-04-24T22:13:03Z</time>
      </trkpt>
      <trkpt lat="48.63815" lon="-3.82161">
        <ele>85</ele>
        <time>2022-04-24T22:13:04Z</time>
      </trkpt>
      <trkpt lat="48.63818" lon="-3.82155">
        <ele>85</ele>
        <time>2022-04-24T22:13:05Z</time>
      </trkpt>
      <trkpt lat="48.63822" lon="-3.82152">
        <ele>86</ele>
        <time>2022-04-24T22:13:05Z</time>
      </trkpt>
      <trkpt lat="48.6382" lon="-3.82137">
        <ele>86</ele>
        <time>2022-04-24T22:13:07Z</time>
      </trkpt>
      <trkpt lat="48.6381" lon="-3.82101">
        <ele>86</ele>
        <time>2022-04-24T22:13:12Z</time>
      </trkpt>
      <trkpt lat="48.63772" lon="-3.81976">
        <ele>87</ele>
        <time>2022-04-24T22:13:28Z</time>
      </trkpt>
      <trkpt lat="48.63724" lon="-3.81786">
        <ele>84</ele>
        <time>2022-04-24T22:13:52Z</time>
      </trkpt>
      <trkpt lat="48.63717" lon="-3.81751">
        <ele>84</ele>
        <time>2022-04-24T22:13:56Z</time>
      </trkpt>
      <trkpt lat="48.63714" lon="-3.81718">
        <ele>84</ele>
        <time>2022-04-24T22:14:00Z</time>
      </trkpt>
      <trkpt lat="48.63723" lon="-3.81522">
        <ele>85</ele>
        <time>2022-04-24T22:14:23Z</time>
      </trkpt>
      <trkpt lat="48.63723" lon="-3.81501">
        <ele>84</ele>
        <time>2022-04-24T22:14:26Z</time>
      </trkpt>
      <trkpt lat="48.63714" lon="-3.81422">
        <ele>83</ele>
        <time>2022-04-24T22:14:35Z</time>
      </trkpt>
      <trkpt lat="48.63677" lon="-3.81249">
        <ele>87</ele>
        <time>2022-04-24T22:14:57Z</time>
      </trkpt>
      <trkpt lat="48.63651" lon="-3.81144">
        <ele>87</ele>
        <time>2022-04-24T22:15:10Z</time>
      </trkpt>
      <trkpt lat="48.63648" lon="-3.81124">
        <ele>88</ele>
        <time>2022-04-24T22:15:12Z</time>
      </trkpt>
      <trkpt lat="48.63646" lon="-3.81112">
        <ele>88</ele>
        <time>2022-04-24T22:15:14Z</time>
      </trkpt>
      <trkpt lat="48.63647" lon="-3.81098">
        <ele>88</ele>
        <time>2022-04-24T22:15:15Z</time>
      </trkpt>
      <trkpt lat="48.63641" lon="-3.81013">
        <ele>90</ele>
        <time>2022-04-24T22:15:25Z</time>
      </trkpt>
      <trkpt lat="48.63631" lon="-3.80936">
        <ele>90</ele>
        <time>2022-04-24T22:15:35Z</time>
      </trkpt>
      <trkpt lat="48.63594" lon="-3.8075">
        <ele>89</ele>
        <time>2022-04-24T22:15:57Z</time>
      </trkpt>
      <trkpt lat="48.63563" lon="-3.80584">
        <ele>88</ele>
        <time>2022-04-24T22:16:18Z</time>
      </trkpt>
      <trkpt lat="48.63553" lon="-3.80512">
        <ele>89</ele>
        <time>2022-04-24T22:16:26Z</time>
      </trkpt>
      <trkpt lat="48.63529" lon="-3.80313">
        <ele>90</ele>
        <time>2022-04-24T22:16:50Z</time>
      </trkpt>
      <trkpt lat="48.6352" lon="-3.80279">
        <ele>89</ele>
        <time>2022-04-24T22:16:54Z</time>
      </trkpt>
      <trkpt lat="48.63506" lon="-3.80262">
        <ele>88</ele>
        <time>2022-04-24T22:16:58Z</time>
      </trkpt>
      <trkpt lat="48.63504" lon="-3.80253">
        <ele>88</ele>
        <time>2022-04-24T22:16:59Z</time>
      </trkpt>
      <trkpt lat="48.63504" lon="-3.80243">
        <ele>88</ele>
        <time>2022-04-24T22:17:00Z</time>
      </trkpt>
      <trkpt lat="48.63509" lon="-3.8022">
        <ele>89</ele>
        <time>2022-04-24T22:17:03Z</time>
      </trkpt>
      <trkpt lat="48.63508" lon="-3.80171">
        <ele>90</ele>
        <time>2022-04-24T22:17:08Z</time>
      </trkpt>
      <trkpt lat="48.63466" lon="-3.7995">
        <ele>88</ele>
        <time>2022-04-24T22:17:36Z</time>
      </trkpt>
      <trkpt lat="48.63354" lon="-3.79509">
        <ele>82</ele>
        <time>2022-04-24T22:18:31Z</time>
      </trkpt>
      <trkpt lat="48.63306" lon="-3.79315">
        <ele>83</ele>
        <time>2022-04-24T22:18:55Z</time>
      </trkpt>
      <trkpt lat="48.63299" lon="-3.79243">
        <ele>82</ele>
        <time>2022-04-24T22:19:04Z</time>
      </trkpt>
      <trkpt lat="48.63296" lon="-3.79189">
        <ele>83</ele>
        <time>2022-04-24T22:19:10Z</time>
      </trkpt>
      <trkpt lat="48.63295" lon="-3.79124">
        <ele>82</ele>
        <time>2022-04-24T22:19:18Z</time>
      </trkpt>
      <trkpt lat="48.63299" lon="-3.79057">
        <ele>82</ele>
        <time>2022-04-24T22:19:26Z</time>
      </trkpt>
      <trkpt lat="48.6334" lon="-3.78542">
        <ele>87</ele>
        <time>2022-04-24T22:20:27Z</time>
      </trkpt>
      <trkpt lat="48.63355" lon="-3.78412">
        <ele>90</ele>
        <time>2022-04-24T22:20:42Z</time>
      </trkpt>
      <trkpt lat="48.63462" lon="-3.77774">
        <ele>89</ele>
        <time>2022-04-24T22:22:00Z</time>
      </trkpt>
      <trkpt lat="48.63485" lon="-3.77653">
        <ele>89</ele>
        <time>2022-04-24T22:22:15Z</time>
      </trkpt>
      <trkpt lat="48.63499" lon="-3.77589">
        <ele>90</ele>
        <time>2022-04-24T22:22:23Z</time>
      </trkpt>
      <trkpt lat="48.63523" lon="-3.77533">
        <ele>91</ele>
        <time>2022-04-24T22:22:30Z</time>
      </trkpt>
      <trkpt lat="48.63569" lon="-3.77458">
        <ele>93</ele>
        <time>2022-04-24T22:22:42Z</time>
      </trkpt>
      <trkpt lat="48.63636" lon="-3.77363">
        <ele>96</ele>
        <time>2022-04-24T22:22:59Z</time>
      </trkpt>
      <trkpt lat="48.63763" lon="-3.77224">
        <ele>97</ele>
        <time>2022-04-24T22:23:27Z</time>
      </trkpt>
      <trkpt lat="48.63822" lon="-3.77151">
        <ele>98</ele>
        <time>2022-04-24T22:23:40Z</time>
      </trkpt>
      <trkpt lat="48.6386" lon="-3.77075">
        <ele>103</ele>
        <time>2022-04-24T22:23:51Z</time>
      </trkpt>
      <trkpt lat="48.63887" lon="-3.76996">
        <ele>105</ele>
        <time>2022-04-24T22:24:02Z</time>
      </trkpt>
      <trkpt lat="48.6406" lon="-3.76425">
        <ele>120</ele>
        <time>2022-04-24T22:25:16Z</time>
      </trkpt>
      <trkpt lat="48.64106" lon="-3.76318">
        <ele>122</ele>
        <time>2022-04-24T22:25:31Z</time>
      </trkpt>
      <trkpt lat="48.64204" lon="-3.76169">
        <ele>123</ele>
        <time>2022-04-24T22:25:55Z</time>
      </trkpt>
      <trkpt lat="48.64244" lon="-3.76088">
        <ele>125</ele>
        <time>2022-04-24T22:26:07Z</time>
      </trkpt>
      <trkpt lat="48.64295" lon="-3.75928">
        <ele>126</ele>
        <time>2022-04-24T22:26:28Z</time>
      </trkpt>
      <trkpt lat="48.64425" lon="-3.75357">
        <ele>125</ele>
        <time>2022-04-24T22:27:39Z</time>
      </trkpt>
      <trkpt lat="48.64444" lon="-3.75239">
        <ele>125</ele>
        <time>2022-04-24T22:27:54Z</time>
      </trkpt>
      <trkpt lat="48.64475" lon="-3.74546">
        <ele>125</ele>
        <time>2022-04-24T22:29:15Z</time>
      </trkpt>
      <trkpt lat="48.64473" lon="-3.74459">
        <ele>126</ele>
        <time>2022-04-24T22:29:25Z</time>
      </trkpt>
      <trkpt lat="48.6447" lon="-3.74416">
        <ele>126</ele>
        <time>2022-04-24T22:29:31Z</time>
      </trkpt>
      <trkpt lat="48.64465" lon="-3.74374">
        <ele>125</ele>
        <time>2022-04-24T22:29:36Z</time>
      </trkpt>
      <trkpt lat="48.64442" lon="-3.74242">
        <ele>124</ele>
        <time>2022-04-24T22:29:52Z</time>
      </trkpt>
      <trkpt lat="48.64429" lon="-3.74139">
        <ele>123</ele>
        <time>2022-04-24T22:30:04Z</time>
      </trkpt>
      <trkpt lat="48.64425" lon="-3.74071">
        <ele>122</ele>
        <time>2022-04-24T22:30:12Z</time>
      </trkpt>
      <trkpt lat="48.64424" lon="-3.73941">
        <ele>123</ele>
        <time>2022-04-24T22:30:27Z</time>
      </trkpt>
      <trkpt lat="48.64425" lon="-3.73847">
        <ele>123</ele>
        <time>2022-04-24T22:30:38Z</time>
      </trkpt>
      <trkpt lat="48.64428" lon="-3.73811">
        <ele>123</ele>
        <time>2022-04-24T22:30:43Z</time>
      </trkpt>
      <trkpt lat="48.64437" lon="-3.73754">
        <ele>123</ele>
        <time>2022-04-24T22:30:49Z</time>
      </trkpt>
      <trkpt lat="48.64444" lon="-3.73725">
        <ele>123</ele>
        <time>2022-04-24T22:30:53Z</time>
      </trkpt>
      <trkpt lat="48.64527" lon="-3.73475">
        <ele>123</ele>
        <time>2022-04-24T22:31:26Z</time>
      </trkpt>
      <trkpt lat="48.64537" lon="-3.73438">
        <ele>123</ele>
        <time>2022-04-24T22:31:31Z</time>
      </trkpt>
      <trkpt lat="48.64544" lon="-3.734">
        <ele>123</ele>
        <time>2022-04-24T22:31:35Z</time>
      </trkpt>
      <trkpt lat="48.64547" lon="-3.73368">
        <ele>124</ele>
        <time>2022-04-24T22:31:39Z</time>
      </trkpt>
      <trkpt lat="48.64548" lon="-3.73336">
        <ele>124</ele>
        <time>2022-04-24T22:31:43Z</time>
      </trkpt>
      <trkpt lat="48.64544" lon="-3.73242">
        <ele>124</ele>
        <time>2022-04-24T22:31:54Z</time>
      </trkpt>
      <trkpt lat="48.64528" lon="-3.73071">
        <ele>121</ele>
        <time>2022-04-24T22:32:14Z</time>
      </trkpt>
      <trkpt lat="48.64515" lon="-3.72942">
        <ele>121</ele>
        <time>2022-04-24T22:32:30Z</time>
      </trkpt>
      <trkpt lat="48.64506" lon="-3.7281">
        <ele>121</ele>
        <time>2022-04-24T22:32:45Z</time>
      </trkpt>
      <trkpt lat="48.64511" lon="-3.72738">
        <ele>122</ele>
        <time>2022-04-24T22:32:54Z</time>
      </trkpt>
      <trkpt lat="48.64528" lon="-3.72657">
        <ele>123</ele>
        <time>2022-04-24T22:33:04Z</time>
      </trkpt>
      <trkpt lat="48.64562" lon="-3.72559">
        <ele>121</ele>
        <time>2022-04-24T22:33:17Z</time>
      </trkpt>
      <trkpt lat="48.64581" lon="-3.72482">
        <ele>120</ele>
        <time>2022-04-24T22:33:26Z</time>
      </trkpt>
      <trkpt lat="48.64602" lon="-3.7234">
        <ele>118</ele>
        <time>2022-04-24T22:33:43Z</time>
      </trkpt>
      <trkpt lat="48.64616" lon="-3.72226">
        <ele>117</ele>
        <time>2022-04-24T22:33:57Z</time>
      </trkpt>
      <trkpt lat="48.64638" lon="-3.72081">
        <ele>115</ele>
        <time>2022-04-24T22:34:15Z</time>
      </trkpt>
      <trkpt lat="48.64651" lon="-3.71925">
        <ele>115</ele>
        <time>2022-04-24T22:34:33Z</time>
      </trkpt>
      <trkpt lat="48.64648" lon="-3.71833">
        <ele>115</ele>
        <time>2022-04-24T22:34:44Z</time>
      </trkpt>
      <trkpt lat="48.64651" lon="-3.71779">
        <ele>114</ele>
        <time>2022-04-24T22:34:50Z</time>
      </trkpt>
      <trkpt lat="48.64647" lon="-3.71754">
        <ele>113</ele>
        <time>2022-04-24T22:34:53Z</time>
      </trkpt>
      <trkpt lat="48.64627" lon="-3.71704">
        <ele>113</ele>
        <time>2022-04-24T22:35:00Z</time>
      </trkpt>
      <trkpt lat="48.64615" lon="-3.71681">
        <ele>112</ele>
        <time>2022-04-24T22:35:04Z</time>
      </trkpt>
      <trkpt lat="48.64657" lon="-3.71655">
        <ele>111</ele>
        <time>2022-04-24T22:35:12Z</time>
      </trkpt>
      <trkpt lat="48.64675" lon="-3.71649">
        <ele>111</ele>
        <time>2022-04-24T22:35:15Z</time>
      </trkpt>
      <trkpt lat="48.64695" lon="-3.71645">
        <ele>110</ele>
        <time>2022-04-24T22:35:19Z</time>
      </trkpt>
      <trkpt lat="48.64705" lon="-3.71648">
        <ele>110</ele>
        <time>2022-04-24T22:35:20Z</time>
      </trkpt>
      <trkpt lat="48.64711" lon="-3.71653">
        <ele>110</ele>
        <time>2022-04-24T22:35:22Z</time>
      </trkpt>
      <trkpt lat="48.64699" lon="-3.71586">
        <ele>109</ele>
        <time>2022-04-24T22:35:30Z</time>
      </trkpt>
      <trkpt lat="48.64668" lon="-3.71537">
        <ele>111</ele>
        <time>2022-04-24T22:35:38Z</time>
      </trkpt>
      <trkpt lat="48.64656" lon="-3.71499">
        <ele>111</ele>
        <time>2022-04-24T22:35:43Z</time>
      </trkpt>
      <trkpt lat="48.64635" lon="-3.71361">
        <ele>112</ele>
        <time>2022-04-24T22:35:59Z</time>
      </trkpt>
      <trkpt lat="48.64589" lon="-3.71245">
        <ele>112</ele>
        <time>2022-04-24T22:36:15Z</time>
      </trkpt>
      <trkpt lat="48.64543" lon="-3.71151">
        <ele>111</ele>
        <time>2022-04-24T22:36:29Z</time>
      </trkpt>
      <trkpt lat="48.64495" lon="-3.71073">
        <ele>110</ele>
        <time>2022-04-24T22:36:41Z</time>
      </trkpt>
      <trkpt lat="48.64451" lon="-3.71033">
        <ele>109</ele>
        <time>2022-04-24T22:36:51Z</time>
      </trkpt>
      <trkpt lat="48.64495" lon="-3.71073">
        <ele>110</ele>
        <time>2022-04-24T22:37:00Z</time>
      </trkpt>
      <trkpt lat="48.64495" lon="-3.71025">
        <ele>109</ele>
        <time>2022-04-24T22:37:05Z</time>
      </trkpt>
      <trkpt lat="48.64465" lon="-3.70834">
        <ele>102</ele>
        <time>2022-04-24T22:37:28Z</time>
      </trkpt>
      <trkpt lat="48.64395" lon="-3.70628">
        <ele>96</ele>
        <time>2022-04-24T22:37:56Z</time>
      </trkpt>
      <trkpt lat="48.64349" lon="-3.70476">
        <ele>92</ele>
        <time>2022-04-24T22:38:15Z</time>
      </trkpt>
      <trkpt lat="48.64284" lon="-3.70163">
        <ele>98</ele>
        <time>2022-04-24T22:38:54Z</time>
      </trkpt>
      <trkpt lat="48.6417" lon="-3.69628">
        <ele>96</ele>
        <time>2022-04-24T22:40:00Z</time>
      </trkpt>
      <trkpt lat="48.64178" lon="-3.69569">
        <ele>95</ele>
        <time>2022-04-24T22:40:07Z</time>
      </trkpt>
      <trkpt lat="48.64245" lon="-3.69339">
        <ele>93</ele>
        <time>2022-04-24T22:40:37Z</time>
      </trkpt>
      <trkpt lat="48.64261" lon="-3.69278">
        <ele>92</ele>
        <time>2022-04-24T22:40:44Z</time>
      </trkpt>
      <trkpt lat="48.64273" lon="-3.6921">
        <ele>91</ele>
        <time>2022-04-24T22:40:53Z</time>
      </trkpt>
      <trkpt lat="48.64298" lon="-3.68883">
        <ele>82</ele>
        <time>2022-04-24T22:41:31Z</time>
      </trkpt>
      <trkpt lat="48.64353" lon="-3.68581">
        <ele>78</ele>
        <time>2022-04-24T22:42:08Z</time>
      </trkpt>
      <trkpt lat="48.64409" lon="-3.6829">
        <ele>76</ele>
        <time>2022-04-24T22:42:44Z</time>
      </trkpt>
      <trkpt lat="48.64427" lon="-3.68224">
        <ele>74</ele>
        <time>2022-04-24T22:42:52Z</time>
      </trkpt>
      <trkpt lat="48.64451" lon="-3.68163">
        <ele>73</ele>
        <time>2022-04-24T22:43:01Z</time>
      </trkpt>
      <trkpt lat="48.64479" lon="-3.68106">
        <ele>73</ele>
        <time>2022-04-24T22:43:09Z</time>
      </trkpt>
      <trkpt lat="48.64494" lon="-3.6801">
        <ele>70</ele>
        <time>2022-04-24T22:43:20Z</time>
      </trkpt>
      <trkpt lat="48.64512" lon="-3.67943">
        <ele>67</ele>
        <time>2022-04-24T22:43:29Z</time>
      </trkpt>
      <trkpt lat="48.64526" lon="-3.67903">
        <ele>66</ele>
        <time>2022-04-24T22:43:34Z</time>
      </trkpt>
      <trkpt lat="48.64536" lon="-3.67885">
        <ele>65</ele>
        <time>2022-04-24T22:43:37Z</time>
      </trkpt>
      <trkpt lat="48.64548" lon="-3.67855">
        <ele>63</ele>
        <time>2022-04-24T22:43:41Z</time>
      </trkpt>
      <trkpt lat="48.6458" lon="-3.67737">
        <ele>56</ele>
        <time>2022-04-24T22:43:56Z</time>
      </trkpt>
      <trkpt lat="48.64598" lon="-3.67653">
        <ele>53</ele>
        <time>2022-04-24T22:44:07Z</time>
      </trkpt>
      <trkpt lat="48.64645" lon="-3.67359">
        <ele>49</ele>
        <time>2022-04-24T22:44:42Z</time>
      </trkpt>
      <trkpt lat="48.64689" lon="-3.67196">
        <ele>46</ele>
        <time>2022-04-24T22:45:03Z</time>
      </trkpt>
      <trkpt lat="48.64695" lon="-3.67157">
        <ele>44</ele>
        <time>2022-04-24T22:45:08Z</time>
      </trkpt>
      <trkpt lat="48.64694" lon="-3.67118">
        <ele>42</ele>
        <time>2022-04-24T22:45:12Z</time>
      </trkpt>
      <trkpt lat="48.64681" lon="-3.66928">
        <ele>34</ele>
        <time>2022-04-24T22:45:35Z</time>
      </trkpt>
      <trkpt lat="48.64682" lon="-3.66882">
        <ele>32</ele>
        <time>2022-04-24T22:45:40Z</time>
      </trkpt>
      <trkpt lat="48.64686" lon="-3.66862">
        <ele>31</ele>
        <time>2022-04-24T22:45:42Z</time>
      </trkpt>
      <trkpt lat="48.64719" lon="-3.66763">
        <ele>28</ele>
        <time>2022-04-24T22:45:55Z</time>
      </trkpt>
      <trkpt lat="48.64733" lon="-3.667">
        <ele>24</ele>
        <time>2022-04-24T22:46:03Z</time>
      </trkpt>
      <trkpt lat="48.64752" lon="-3.66587">
        <ele>16</ele>
        <time>2022-04-24T22:46:17Z</time>
      </trkpt>
      <trkpt lat="48.6475" lon="-3.66475">
        <ele>10</ele>
        <time>2022-04-24T22:46:30Z</time>
      </trkpt>
      <trkpt lat="48.64762" lon="-3.66431">
        <ele>8</ele>
        <time>2022-04-24T22:46:36Z</time>
      </trkpt>
      <trkpt lat="48.64791" lon="-3.66288">
        <ele>7</ele>
        <time>2022-04-24T22:46:53Z</time>
      </trkpt>
      <trkpt lat="48.648" lon="-3.66267">
        <ele>7</ele>
        <time>2022-04-24T22:46:56Z</time>
      </trkpt>
      <trkpt lat="48.64838" lon="-3.66213">
        <ele>9</ele>
        <time>2022-04-24T22:47:06Z</time>
      </trkpt>
      <trkpt lat="48.6485" lon="-3.662">
        <ele>10</ele>
        <time>2022-04-24T22:47:08Z</time>
      </trkpt>
      <trkpt lat="48.64914" lon="-3.66097">
        <ele>19</ele>
        <time>2022-04-24T22:47:25Z</time>
      </trkpt>
      <trkpt lat="48.64947" lon="-3.66056">
        <ele>24</ele>
        <time>2022-04-24T22:47:32Z</time>
      </trkpt>
      <trkpt lat="48.64962" lon="-3.66032">
        <ele>26</ele>
        <time>2022-04-24T22:47:36Z</time>
      </trkpt>
      <trkpt lat="48.6497" lon="-3.66018">
        <ele>27</ele>
        <time>2022-04-24T22:47:38Z</time>
      </trkpt>
      <trkpt lat="48.64996" lon="-3.65953">
        <ele>31</ele>
        <time>2022-04-24T22:47:47Z</time>
      </trkpt>
      <trkpt lat="48.65006" lon="-3.6592">
        <ele>33</ele>
        <time>2022-04-24T22:47:52Z</time>
      </trkpt>
      <trkpt lat="48.6502" lon="-3.65892">
        <ele>34</ele>
        <time>2022-04-24T22:47:56Z</time>
      </trkpt>
      <trkpt lat="48.65032" lon="-3.65872">
        <ele>35</ele>
        <time>2022-04-24T22:47:59Z</time>
      </trkpt>
      <trkpt lat="48.65148" lon="-3.65658">
        <ele>39</ele>
        <time>2022-04-24T22:48:32Z</time>
      </trkpt>
      <trkpt lat="48.65173" lon="-3.65615">
        <ele>40</ele>
        <time>2022-04-24T22:48:38Z</time>
      </trkpt>
      <trkpt lat="48.65305" lon="-3.65449">
        <ele>42</ele>
        <time>2022-04-24T22:49:09Z</time>
      </trkpt>
      <trkpt lat="48.65325" lon="-3.65418">
        <ele>42</ele>
        <time>2022-04-24T22:49:14Z</time>
      </trkpt>
      <trkpt lat="48.6534" lon="-3.6538">
        <ele>43</ele>
        <time>2022-04-24T22:49:19Z</time>
      </trkpt>
      <trkpt lat="48.65404" lon="-3.65099">
        <ele>46</ele>
        <time>2022-04-24T22:49:54Z</time>
      </trkpt>
      <trkpt lat="48.65413" lon="-3.65053">
        <ele>46</ele>
        <time>2022-04-24T22:50:00Z</time>
      </trkpt>
      <trkpt lat="48.65428" lon="-3.64932">
        <ele>46</ele>
        <time>2022-04-24T22:50:14Z</time>
      </trkpt>
      <trkpt lat="48.65449" lon="-3.64817">
        <ele>44</ele>
        <time>2022-04-24T22:50:28Z</time>
      </trkpt>
      <trkpt lat="48.6547" lon="-3.64744">
        <ele>42</ele>
        <time>2022-04-24T22:50:38Z</time>
      </trkpt>
      <trkpt lat="48.65482" lon="-3.64706">
        <ele>41</ele>
        <time>2022-04-24T22:50:42Z</time>
      </trkpt>
      <trkpt lat="48.65508" lon="-3.64639">
        <ele>38</ele>
        <time>2022-04-24T22:50:52Z</time>
      </trkpt>
      <trkpt lat="48.65534" lon="-3.64561">
        <ele>34</ele>
        <time>2022-04-24T22:51:02Z</time>
      </trkpt>
      <trkpt lat="48.65549" lon="-3.64502">
        <ele>31</ele>
        <time>2022-04-24T22:51:09Z</time>
      </trkpt>
      <trkpt lat="48.65623" lon="-3.63973">
        <ele>22</ele>
        <time>2022-04-24T22:52:13Z</time>
      </trkpt>
      <trkpt lat="48.65638" lon="-3.63875">
        <ele>26</ele>
        <time>2022-04-24T22:52:25Z</time>
      </trkpt>
      <trkpt lat="48.65647" lon="-3.63827">
        <ele>29</ele>
        <time>2022-04-24T22:52:31Z</time>
      </trkpt>
      <trkpt lat="48.65654" lon="-3.63798">
        <ele>30</ele>
        <time>2022-04-24T22:52:34Z</time>
      </trkpt>
      <trkpt lat="48.65665" lon="-3.63765">
        <ele>32</ele>
        <time>2022-04-24T22:52:39Z</time>
      </trkpt>
      <trkpt lat="48.65675" lon="-3.63745">
        <ele>32</ele>
        <time>2022-04-24T22:52:41Z</time>
      </trkpt>
      <trkpt lat="48.65708" lon="-3.63622">
        <ele>33</ele>
        <time>2022-04-24T22:52:57Z</time>
      </trkpt>
      <trkpt lat="48.65747" lon="-3.6345">
        <ele>35</ele>
        <time>2022-04-24T22:53:18Z</time>
      </trkpt>
      <trkpt lat="48.65774" lon="-3.63406">
        <ele>37</ele>
        <time>2022-04-24T22:53:26Z</time>
      </trkpt>
      <trkpt lat="48.65797" lon="-3.63379">
        <ele>38</ele>
        <time>2022-04-24T22:53:31Z</time>
      </trkpt>
      <trkpt lat="48.65823" lon="-3.6337">
        <ele>39</ele>
        <time>2022-04-24T22:53:35Z</time>
      </trkpt>
      <trkpt lat="48.6596" lon="-3.63291">
        <ele>42</ele>
        <time>2022-04-24T22:54:02Z</time>
      </trkpt>
      <trkpt lat="48.66028" lon="-3.63249">
        <ele>45</ele>
        <time>2022-04-24T22:54:15Z</time>
      </trkpt>
      <trkpt lat="48.66052" lon="-3.63223">
        <ele>46</ele>
        <time>2022-04-24T22:54:20Z</time>
      </trkpt>
      <trkpt lat="48.66128" lon="-3.63108">
        <ele>49</ele>
        <time>2022-04-24T22:54:39Z</time>
      </trkpt>
      <trkpt lat="48.66141" lon="-3.63085">
        <ele>48</ele>
        <time>2022-04-24T22:54:43Z</time>
      </trkpt>
      <trkpt lat="48.66153" lon="-3.63059">
        <ele>49</ele>
        <time>2022-04-24T22:54:46Z</time>
      </trkpt>
      <trkpt lat="48.66212" lon="-3.62861">
        <ele>53</ele>
        <time>2022-04-24T22:55:12Z</time>
      </trkpt>
      <trkpt lat="48.66237" lon="-3.6281">
        <ele>54</ele>
        <time>2022-04-24T22:55:19Z</time>
      </trkpt>
      <trkpt lat="48.66351" lon="-3.62596">
        <ele>55</ele>
        <time>2022-04-24T22:55:52Z</time>
      </trkpt>
      <trkpt lat="48.66381" lon="-3.62552">
        <ele>55</ele>
        <time>2022-04-24T22:55:59Z</time>
      </trkpt>
      <trkpt lat="48.66424" lon="-3.62497">
        <ele>54</ele>
        <time>2022-04-24T22:56:09Z</time>
      </trkpt>
      <trkpt lat="48.66448" lon="-3.62475">
        <ele>53</ele>
        <time>2022-04-24T22:56:14Z</time>
      </trkpt>
      <trkpt lat="48.66515" lon="-3.62404">
        <ele>50</ele>
        <time>2022-04-24T22:56:29Z</time>
      </trkpt>
      <trkpt lat="48.66547" lon="-3.62361">
        <ele>49</ele>
        <time>2022-04-24T22:56:36Z</time>
      </trkpt>
      <trkpt lat="48.66566" lon="-3.62332">
        <ele>48</ele>
        <time>2022-04-24T22:56:41Z</time>
      </trkpt>
      <trkpt lat="48.66607" lon="-3.62252">
        <ele>46</ele>
        <time>2022-04-24T22:56:53Z</time>
      </trkpt>
      <trkpt lat="48.66642" lon="-3.62174">
        <ele>44</ele>
        <time>2022-04-24T22:57:04Z</time>
      </trkpt>
      <trkpt lat="48.66755" lon="-3.61971">
        <ele>41</ele>
        <time>2022-04-24T22:57:35Z</time>
      </trkpt>
      <trkpt lat="48.66828" lon="-3.61835">
        <ele>42</ele>
        <time>2022-04-24T22:57:56Z</time>
      </trkpt>
      <trkpt lat="48.66843" lon="-3.61791">
        <ele>43</ele>
        <time>2022-04-24T22:58:02Z</time>
      </trkpt>
      <trkpt lat="48.66866" lon="-3.61709">
        <ele>45</ele>
        <time>2022-04-24T22:58:12Z</time>
      </trkpt>
      <trkpt lat="48.66874" lon="-3.61688">
        <ele>45</ele>
        <time>2022-04-24T22:58:15Z</time>
      </trkpt>
      <trkpt lat="48.66955" lon="-3.61703">
        <ele>44</ele>
        <time>2022-04-24T22:58:29Z</time>
      </trkpt>
      <trkpt lat="48.6709" lon="-3.61733">
        <ele>44</ele>
        <time>2022-04-24T22:58:54Z</time>
      </trkpt>
      <trkpt lat="48.6712" lon="-3.61738">
        <ele>45</ele>
        <time>2022-04-24T22:58:59Z</time>
      </trkpt>
      <trkpt lat="48.67148" lon="-3.61737">
        <ele>45</ele>
        <time>2022-04-24T22:59:04Z</time>
      </trkpt>
      <trkpt lat="48.67271" lon="-3.6171">
        <ele>43</ele>
        <time>2022-04-24T22:59:26Z</time>
      </trkpt>
      <trkpt lat="48.67291" lon="-3.61709">
        <ele>43</ele>
        <time>2022-04-24T22:59:30Z</time>
      </trkpt>
      <trkpt lat="48.67313" lon="-3.61713">
        <ele>42</ele>
        <time>2022-04-24T22:59:34Z</time>
      </trkpt>
      <trkpt lat="48.67369" lon="-3.6173">
        <ele>43</ele>
        <time>2022-04-24T22:59:44Z</time>
      </trkpt>
      <trkpt lat="48.67395" lon="-3.61743">
        <ele>43</ele>
        <time>2022-04-24T22:59:49Z</time>
      </trkpt>
      <trkpt lat="48.67436" lon="-3.61779">
        <ele>44</ele>
        <time>2022-04-24T22:59:57Z</time>
      </trkpt>
      <trkpt lat="48.6747" lon="-3.61799">
        <ele>45</ele>
        <time>2022-04-24T23:00:04Z</time>
      </trkpt>
      <trkpt lat="48.67491" lon="-3.61814">
        <ele>45</ele>
        <time>2022-04-24T23:00:08Z</time>
      </trkpt>
      <trkpt lat="48.67647" lon="-3.61944">
        <ele>46</ele>
        <time>2022-04-24T23:00:39Z</time>
      </trkpt>
      <trkpt lat="48.67669" lon="-3.61967">
        <ele>47</ele>
        <time>2022-04-24T23:00:44Z</time>
      </trkpt>
      <trkpt lat="48.67679" lon="-3.61993">
        <ele>47</ele>
        <time>2022-04-24T23:00:48Z</time>
      </trkpt>
      <trkpt lat="48.67692" lon="-3.62008">
        <ele>48</ele>
        <time>2022-04-24T23:00:51Z</time>
      </trkpt>
      <trkpt lat="48.67707" lon="-3.62021">
        <ele>49</ele>
        <time>2022-04-24T23:00:54Z</time>
      </trkpt>
      <trkpt lat="48.67727" lon="-3.62032">
        <ele>50</ele>
        <time>2022-04-24T23:00:57Z</time>
      </trkpt>
      <trkpt lat="48.67767" lon="-3.62047">
        <ele>52</ele>
        <time>2022-04-24T23:01:05Z</time>
      </trkpt>
      <trkpt lat="48.67782" lon="-3.62044">
        <ele>53</ele>
        <time>2022-04-24T23:01:07Z</time>
      </trkpt>
      <trkpt lat="48.67795" lon="-3.62038">
        <ele>53</ele>
        <time>2022-04-24T23:01:10Z</time>
      </trkpt>
      <trkpt lat="48.67824" lon="-3.62013">
        <ele>54</ele>
        <time>2022-04-24T23:01:16Z</time>
      </trkpt>
      <trkpt lat="48.67877" lon="-3.61997">
        <ele>55</ele>
        <time>2022-04-24T23:01:25Z</time>
      </trkpt>
      <trkpt lat="48.67934" lon="-3.61987">
        <ele>58</ele>
        <time>2022-04-24T23:01:36Z</time>
      </trkpt>
      <trkpt lat="48.68052" lon="-3.61921">
        <ele>61</ele>
        <time>2022-04-24T23:01:58Z</time>
      </trkpt>
      <trkpt lat="48.68066" lon="-3.61927">
        <ele>62</ele>
        <time>2022-04-24T23:02:01Z</time>
      </trkpt>
      <trkpt lat="48.68078" lon="-3.61943">
        <ele>63</ele>
        <time>2022-04-24T23:02:03Z</time>
      </trkpt>
      <trkpt lat="48.68096" lon="-3.61975">
        <ele>61</ele>
        <time>2022-04-24T23:02:08Z</time>
      </trkpt>
      <trkpt lat="48.68101" lon="-3.62002">
        <ele>60</ele>
        <time>2022-04-24T23:02:12Z</time>
      </trkpt>
      <trkpt lat="48.68106" lon="-3.62055">
        <ele>59</ele>
        <time>2022-04-24T23:02:18Z</time>
      </trkpt>
      <trkpt lat="48.68106" lon="-3.62082">
        <ele>58</ele>
        <time>2022-04-24T23:02:21Z</time>
      </trkpt>
      <trkpt lat="48.68101" lon="-3.62138">
        <ele>57</ele>
        <time>2022-04-24T23:02:28Z</time>
      </trkpt>
      <trkpt lat="48.6809" lon="-3.62152">
        <ele>58</ele>
        <time>2022-04-24T23:02:30Z</time>
      </trkpt>
      <trkpt lat="48.68009" lon="-3.62236">
        <ele>63</ele>
        <time>2022-04-24T23:02:48Z</time>
      </trkpt>
      <trkpt lat="48.67977" lon="-3.62273">
        <ele>64</ele>
        <time>2022-04-24T23:02:55Z</time>
      </trkpt>
      <trkpt lat="48.67955" lon="-3.62306">
        <ele>63</ele>
        <time>2022-04-24T23:03:00Z</time>
      </trkpt>
      <trkpt lat="48.67948" lon="-3.62319">
        <ele>63</ele>
        <time>2022-04-24T23:03:02Z</time>
      </trkpt>
      <trkpt lat="48.67927" lon="-3.62348">
        <ele>63</ele>
        <time>2022-04-24T23:03:08Z</time>
      </trkpt>
      <trkpt lat="48.67873" lon="-3.62405">
        <ele>59</ele>
        <time>2022-04-24T23:03:19Z</time>
      </trkpt>
      <trkpt lat="48.67837" lon="-3.62437">
        <ele>57</ele>
        <time>2022-04-24T23:03:27Z</time>
      </trkpt>
    </trkseg>
  </trk>
</gpx>